<?xml version="1.0" encoding="UTF-8" standalone="no" ?>
<gpx xmlns="http://www.topografix.com/GPX/1/1" xmlns:xsi="http://www.w3.org/2001/XMLSchema-instance" xsi:schemaLocation="http://www.topografix.com/GPX/1/1 http://www.topografix.com/GPX/1/1/gpx.xsd" version="1.1" creator="VisuGPX - https://www.visugpx.com">
  <metadata>
    <name>balade avec People</name>
    <desc><![CDATA[29 aout 2013
reprise du travail]]></desc>
  </metadata>
  <trk>
    <name><![CDATA[29 août 2013 20:01:23]]></name>
    <cmt><![CDATA[29 août 2013 20:01:23]]></cmt>
    <trkseg>
      <trkpt lat="44.35145" lon="2.51751">
        <ele>591</ele>
        <time>2013-08-29T18:01:24Z</time>
      </trkpt>
      <trkpt lat="44.35143" lon="2.51738">
        <ele>593</ele>
        <time>2013-08-29T18:01:28Z</time>
      </trkpt>
      <trkpt lat="44.35135" lon="2.51744">
        <ele>592</ele>
        <time>2013-08-29T18:01:34Z</time>
      </trkpt>
      <trkpt lat="44.3512" lon="2.51749">
        <ele>589</ele>
        <time>2013-08-29T18:01:43Z</time>
      </trkpt>
      <trkpt lat="44.35111" lon="2.51749">
        <ele>588</ele>
        <time>2013-08-29T18:01:50Z</time>
      </trkpt>
      <trkpt lat="44.35101" lon="2.51754">
        <ele>588</ele>
        <time>2013-08-29T18:01:56Z</time>
      </trkpt>
      <trkpt lat="44.35092" lon="2.51759">
        <ele>586</ele>
        <time>2013-08-29T18:02:02Z</time>
      </trkpt>
      <trkpt lat="44.35085" lon="2.51765">
        <ele>585</ele>
        <time>2013-08-29T18:02:07Z</time>
      </trkpt>
      <trkpt lat="44.35077" lon="2.51774">
        <ele>584</ele>
        <time>2013-08-29T18:02:13Z</time>
      </trkpt>
      <trkpt lat="44.35069" lon="2.51782">
        <ele>583</ele>
        <time>2013-08-29T18:02:19Z</time>
      </trkpt>
      <trkpt lat="44.3506" lon="2.51791">
        <ele>584</ele>
        <time>2013-08-29T18:02:26Z</time>
      </trkpt>
      <trkpt lat="44.35052" lon="2.51799">
        <ele>585</ele>
        <time>2013-08-29T18:02:33Z</time>
      </trkpt>
      <trkpt lat="44.35045" lon="2.51808">
        <ele>586</ele>
        <time>2013-08-29T18:02:40Z</time>
      </trkpt>
      <trkpt lat="44.35036" lon="2.51816">
        <ele>587</ele>
        <time>2013-08-29T18:02:47Z</time>
      </trkpt>
      <trkpt lat="44.35029" lon="2.51825">
        <ele>588</ele>
        <time>2013-08-29T18:02:53Z</time>
      </trkpt>
      <trkpt lat="44.35025" lon="2.51828">
        <ele>589</ele>
        <time>2013-08-29T18:02:56Z</time>
      </trkpt>
      <trkpt lat="44.3502" lon="2.51831">
        <ele>591</ele>
        <time>2013-08-29T18:03:00Z</time>
      </trkpt>
      <trkpt lat="44.35016" lon="2.51834">
        <ele>591</ele>
        <time>2013-08-29T18:03:03Z</time>
      </trkpt>
      <trkpt lat="44.35006" lon="2.51838">
        <ele>591</ele>
        <time>2013-08-29T18:03:11Z</time>
      </trkpt>
      <trkpt lat="44.35" lon="2.51834">
        <ele>591</ele>
        <time>2013-08-29T18:03:16Z</time>
      </trkpt>
      <trkpt lat="44.34994" lon="2.51824">
        <ele>591</ele>
        <time>2013-08-29T18:03:23Z</time>
      </trkpt>
      <trkpt lat="44.34987" lon="2.51813">
        <ele>591</ele>
        <time>2013-08-29T18:03:29Z</time>
      </trkpt>
      <trkpt lat="44.34984" lon="2.51806">
        <ele>590</ele>
        <time>2013-08-29T18:03:32Z</time>
      </trkpt>
      <trkpt lat="44.34981" lon="2.51801">
        <ele>590</ele>
        <time>2013-08-29T18:03:35Z</time>
      </trkpt>
      <trkpt lat="44.34978" lon="2.51795">
        <ele>588</ele>
        <time>2013-08-29T18:03:39Z</time>
      </trkpt>
      <trkpt lat="44.34976" lon="2.51789">
        <ele>587</ele>
        <time>2013-08-29T18:03:42Z</time>
      </trkpt>
      <trkpt lat="44.3497" lon="2.51779">
        <ele>587</ele>
        <time>2013-08-29T18:03:48Z</time>
      </trkpt>
      <trkpt lat="44.34965" lon="2.51775">
        <ele>586</ele>
        <time>2013-08-29T18:03:52Z</time>
      </trkpt>
      <trkpt lat="44.3496" lon="2.51773">
        <ele>585</ele>
        <time>2013-08-29T18:03:55Z</time>
      </trkpt>
      <trkpt lat="44.34952" lon="2.51777">
        <ele>586</ele>
        <time>2013-08-29T18:04:01Z</time>
      </trkpt>
      <trkpt lat="44.34947" lon="2.51781">
        <ele>586</ele>
        <time>2013-08-29T18:04:04Z</time>
      </trkpt>
      <trkpt lat="44.34943" lon="2.51785">
        <ele>585</ele>
        <time>2013-08-29T18:04:07Z</time>
      </trkpt>
      <trkpt lat="44.34938" lon="2.51788">
        <ele>585</ele>
        <time>2013-08-29T18:04:10Z</time>
      </trkpt>
      <trkpt lat="44.34934" lon="2.51792">
        <ele>586</ele>
        <time>2013-08-29T18:04:13Z</time>
      </trkpt>
      <trkpt lat="44.3493" lon="2.51796">
        <ele>586</ele>
        <time>2013-08-29T18:04:16Z</time>
      </trkpt>
      <trkpt lat="44.34926" lon="2.51799">
        <ele>586</ele>
        <time>2013-08-29T18:04:20Z</time>
      </trkpt>
      <trkpt lat="44.34921" lon="2.51802">
        <ele>586</ele>
        <time>2013-08-29T18:04:23Z</time>
      </trkpt>
      <trkpt lat="44.34916" lon="2.51805">
        <ele>587</ele>
        <time>2013-08-29T18:04:27Z</time>
      </trkpt>
      <trkpt lat="44.34911" lon="2.51807">
        <ele>588</ele>
        <time>2013-08-29T18:04:31Z</time>
      </trkpt>
      <trkpt lat="44.34906" lon="2.51807">
        <ele>588</ele>
        <time>2013-08-29T18:04:35Z</time>
      </trkpt>
      <trkpt lat="44.34901" lon="2.51808">
        <ele>587</ele>
        <time>2013-08-29T18:04:38Z</time>
      </trkpt>
      <trkpt lat="44.34895" lon="2.51809">
        <ele>587</ele>
        <time>2013-08-29T18:04:42Z</time>
      </trkpt>
      <trkpt lat="44.3489" lon="2.51809">
        <ele>586</ele>
        <time>2013-08-29T18:04:46Z</time>
      </trkpt>
      <trkpt lat="44.34884" lon="2.51808">
        <ele>587</ele>
        <time>2013-08-29T18:04:50Z</time>
      </trkpt>
      <trkpt lat="44.34879" lon="2.51807">
        <ele>588</ele>
        <time>2013-08-29T18:04:54Z</time>
      </trkpt>
      <trkpt lat="44.34874" lon="2.51807">
        <ele>588</ele>
        <time>2013-08-29T18:04:58Z</time>
      </trkpt>
      <trkpt lat="44.34869" lon="2.51806">
        <ele>588</ele>
        <time>2013-08-29T18:05:01Z</time>
      </trkpt>
      <trkpt lat="44.34864" lon="2.51806">
        <ele>588</ele>
        <time>2013-08-29T18:05:04Z</time>
      </trkpt>
      <trkpt lat="44.3486" lon="2.51805">
        <ele>589</ele>
        <time>2013-08-29T18:05:07Z</time>
      </trkpt>
      <trkpt lat="44.34855" lon="2.51805">
        <ele>589</ele>
        <time>2013-08-29T18:05:10Z</time>
      </trkpt>
      <trkpt lat="44.3485" lon="2.51803">
        <ele>589</ele>
        <time>2013-08-29T18:05:13Z</time>
      </trkpt>
      <trkpt lat="44.34841" lon="2.51802">
        <ele>589</ele>
        <time>2013-08-29T18:05:19Z</time>
      </trkpt>
      <trkpt lat="44.34837" lon="2.51802">
        <ele>589</ele>
        <time>2013-08-29T18:05:23Z</time>
      </trkpt>
      <trkpt lat="44.34832" lon="2.51802">
        <ele>589</ele>
        <time>2013-08-29T18:05:26Z</time>
      </trkpt>
      <trkpt lat="44.34827" lon="2.51801">
        <ele>589</ele>
        <time>2013-08-29T18:05:29Z</time>
      </trkpt>
      <trkpt lat="44.34821" lon="2.518">
        <ele>590</ele>
        <time>2013-08-29T18:05:33Z</time>
      </trkpt>
      <trkpt lat="44.34817" lon="2.51799">
        <ele>591</ele>
        <time>2013-08-29T18:05:36Z</time>
      </trkpt>
      <trkpt lat="44.34812" lon="2.51799">
        <ele>591</ele>
        <time>2013-08-29T18:05:39Z</time>
      </trkpt>
      <trkpt lat="44.34807" lon="2.51799">
        <ele>592</ele>
        <time>2013-08-29T18:05:42Z</time>
      </trkpt>
      <trkpt lat="44.34802" lon="2.51798">
        <ele>592</ele>
        <time>2013-08-29T18:05:45Z</time>
      </trkpt>
      <trkpt lat="44.34797" lon="2.51798">
        <ele>593</ele>
        <time>2013-08-29T18:05:48Z</time>
      </trkpt>
      <trkpt lat="44.34792" lon="2.51798">
        <ele>593</ele>
        <time>2013-08-29T18:05:52Z</time>
      </trkpt>
      <trkpt lat="44.34786" lon="2.51798">
        <ele>595</ele>
        <time>2013-08-29T18:05:56Z</time>
      </trkpt>
      <trkpt lat="44.34781" lon="2.51798">
        <ele>596</ele>
        <time>2013-08-29T18:05:59Z</time>
      </trkpt>
      <trkpt lat="44.34776" lon="2.51798">
        <ele>596</ele>
        <time>2013-08-29T18:06:02Z</time>
      </trkpt>
      <trkpt lat="44.34771" lon="2.51798">
        <ele>596</ele>
        <time>2013-08-29T18:06:06Z</time>
      </trkpt>
      <trkpt lat="44.34765" lon="2.51799">
        <ele>597</ele>
        <time>2013-08-29T18:06:09Z</time>
      </trkpt>
      <trkpt lat="44.3476" lon="2.51802">
        <ele>597</ele>
        <time>2013-08-29T18:06:12Z</time>
      </trkpt>
      <trkpt lat="44.34755" lon="2.51806">
        <ele>598</ele>
        <time>2013-08-29T18:06:16Z</time>
      </trkpt>
      <trkpt lat="44.3475" lon="2.51811">
        <ele>599</ele>
        <time>2013-08-29T18:06:19Z</time>
      </trkpt>
      <trkpt lat="44.34746" lon="2.51817">
        <ele>599</ele>
        <time>2013-08-29T18:06:22Z</time>
      </trkpt>
      <trkpt lat="44.34742" lon="2.51822">
        <ele>600</ele>
        <time>2013-08-29T18:06:25Z</time>
      </trkpt>
      <trkpt lat="44.34737" lon="2.5183">
        <ele>601</ele>
        <time>2013-08-29T18:06:29Z</time>
      </trkpt>
      <trkpt lat="44.34733" lon="2.51835">
        <ele>601</ele>
        <time>2013-08-29T18:06:32Z</time>
      </trkpt>
      <trkpt lat="44.3473" lon="2.5184">
        <ele>602</ele>
        <time>2013-08-29T18:06:35Z</time>
      </trkpt>
      <trkpt lat="44.34726" lon="2.51845">
        <ele>602</ele>
        <time>2013-08-29T18:06:38Z</time>
      </trkpt>
      <trkpt lat="44.34722" lon="2.51849">
        <ele>602</ele>
        <time>2013-08-29T18:06:41Z</time>
      </trkpt>
      <trkpt lat="44.34717" lon="2.51852">
        <ele>603</ele>
        <time>2013-08-29T18:06:44Z</time>
      </trkpt>
      <trkpt lat="44.34712" lon="2.51852">
        <ele>602</ele>
        <time>2013-08-29T18:06:48Z</time>
      </trkpt>
      <trkpt lat="44.34706" lon="2.51852">
        <ele>602</ele>
        <time>2013-08-29T18:06:52Z</time>
      </trkpt>
      <trkpt lat="44.347" lon="2.51849">
        <ele>601</ele>
        <time>2013-08-29T18:06:56Z</time>
      </trkpt>
      <trkpt lat="44.34694" lon="2.51849">
        <ele>600</ele>
        <time>2013-08-29T18:07:00Z</time>
      </trkpt>
      <trkpt lat="44.3469" lon="2.51849">
        <ele>599</ele>
        <time>2013-08-29T18:07:03Z</time>
      </trkpt>
      <trkpt lat="44.34681" lon="2.5185">
        <ele>599</ele>
        <time>2013-08-29T18:07:08Z</time>
      </trkpt>
      <trkpt lat="44.34677" lon="2.5185">
        <ele>598</ele>
        <time>2013-08-29T18:07:11Z</time>
      </trkpt>
      <trkpt lat="44.34672" lon="2.51851">
        <ele>598</ele>
        <time>2013-08-29T18:07:15Z</time>
      </trkpt>
      <trkpt lat="44.34667" lon="2.51854">
        <ele>597</ele>
        <time>2013-08-29T18:07:18Z</time>
      </trkpt>
      <trkpt lat="44.34663" lon="2.51856">
        <ele>597</ele>
        <time>2013-08-29T18:07:21Z</time>
      </trkpt>
      <trkpt lat="44.34657" lon="2.51855">
        <ele>597</ele>
        <time>2013-08-29T18:07:26Z</time>
      </trkpt>
      <trkpt lat="44.34649" lon="2.51843">
        <ele>597</ele>
        <time>2013-08-29T18:07:30Z</time>
      </trkpt>
      <trkpt lat="44.34645" lon="2.51834">
        <ele>597</ele>
        <time>2013-08-29T18:07:32Z</time>
      </trkpt>
      <trkpt lat="44.34641" lon="2.51825">
        <ele>597</ele>
        <time>2013-08-29T18:07:34Z</time>
      </trkpt>
      <trkpt lat="44.34638" lon="2.51816">
        <ele>598</ele>
        <time>2013-08-29T18:07:36Z</time>
      </trkpt>
      <trkpt lat="44.34634" lon="2.51806">
        <ele>598</ele>
        <time>2013-08-29T18:07:38Z</time>
      </trkpt>
      <trkpt lat="44.34629" lon="2.51797">
        <ele>599</ele>
        <time>2013-08-29T18:07:40Z</time>
      </trkpt>
      <trkpt lat="44.34625" lon="2.51788">
        <ele>599</ele>
        <time>2013-08-29T18:07:42Z</time>
      </trkpt>
      <trkpt lat="44.3462" lon="2.51779">
        <ele>600</ele>
        <time>2013-08-29T18:07:44Z</time>
      </trkpt>
      <trkpt lat="44.34618" lon="2.51775">
        <ele>600</ele>
        <time>2013-08-29T18:07:45Z</time>
      </trkpt>
      <trkpt lat="44.34616" lon="2.5177">
        <ele>600</ele>
        <time>2013-08-29T18:07:46Z</time>
      </trkpt>
      <trkpt lat="44.34614" lon="2.51766">
        <ele>600</ele>
        <time>2013-08-29T18:07:47Z</time>
      </trkpt>
      <trkpt lat="44.34612" lon="2.51761">
        <ele>600</ele>
        <time>2013-08-29T18:07:48Z</time>
      </trkpt>
      <trkpt lat="44.34611" lon="2.51757">
        <ele>600</ele>
        <time>2013-08-29T18:07:49Z</time>
      </trkpt>
      <trkpt lat="44.34609" lon="2.51753">
        <ele>600</ele>
        <time>2013-08-29T18:07:50Z</time>
      </trkpt>
      <trkpt lat="44.34607" lon="2.51749">
        <ele>600</ele>
        <time>2013-08-29T18:07:51Z</time>
      </trkpt>
      <trkpt lat="44.34605" lon="2.51745">
        <ele>600</ele>
        <time>2013-08-29T18:07:52Z</time>
      </trkpt>
      <trkpt lat="44.34603" lon="2.51741">
        <ele>600</ele>
        <time>2013-08-29T18:07:53Z</time>
      </trkpt>
      <trkpt lat="44.34601" lon="2.51737">
        <ele>600</ele>
        <time>2013-08-29T18:07:54Z</time>
      </trkpt>
      <trkpt lat="44.34599" lon="2.51732">
        <ele>600</ele>
        <time>2013-08-29T18:07:55Z</time>
      </trkpt>
      <trkpt lat="44.34596" lon="2.51724">
        <ele>599</ele>
        <time>2013-08-29T18:07:57Z</time>
      </trkpt>
      <trkpt lat="44.34592" lon="2.51716">
        <ele>599</ele>
        <time>2013-08-29T18:07:59Z</time>
      </trkpt>
      <trkpt lat="44.34588" lon="2.51707">
        <ele>599</ele>
        <time>2013-08-29T18:08:01Z</time>
      </trkpt>
      <trkpt lat="44.34584" lon="2.517">
        <ele>599</ele>
        <time>2013-08-29T18:08:03Z</time>
      </trkpt>
      <trkpt lat="44.34579" lon="2.51692">
        <ele>600</ele>
        <time>2013-08-29T18:08:05Z</time>
      </trkpt>
      <trkpt lat="44.34577" lon="2.51686">
        <ele>600</ele>
        <time>2013-08-29T18:08:06Z</time>
      </trkpt>
      <trkpt lat="44.34573" lon="2.51678">
        <ele>599</ele>
        <time>2013-08-29T18:08:08Z</time>
      </trkpt>
      <trkpt lat="44.3457" lon="2.51672">
        <ele>599</ele>
        <time>2013-08-29T18:08:10Z</time>
      </trkpt>
      <trkpt lat="44.34567" lon="2.51666">
        <ele>600</ele>
        <time>2013-08-29T18:08:13Z</time>
      </trkpt>
      <trkpt lat="44.34572" lon="2.51656">
        <ele>601</ele>
        <time>2013-08-29T18:08:21Z</time>
      </trkpt>
      <trkpt lat="44.34578" lon="2.51655">
        <ele>601</ele>
        <time>2013-08-29T18:08:24Z</time>
      </trkpt>
      <trkpt lat="44.34589" lon="2.51651">
        <ele>604</ele>
        <time>2013-08-29T18:08:30Z</time>
      </trkpt>
      <trkpt lat="44.34594" lon="2.51648">
        <ele>604</ele>
        <time>2013-08-29T18:08:32Z</time>
      </trkpt>
      <trkpt lat="44.346" lon="2.51645">
        <ele>604</ele>
        <time>2013-08-29T18:08:34Z</time>
      </trkpt>
      <trkpt lat="44.34606" lon="2.51641">
        <ele>605</ele>
        <time>2013-08-29T18:08:36Z</time>
      </trkpt>
      <trkpt lat="44.34613" lon="2.51638">
        <ele>605</ele>
        <time>2013-08-29T18:08:38Z</time>
      </trkpt>
      <trkpt lat="44.3462" lon="2.51636">
        <ele>605</ele>
        <time>2013-08-29T18:08:40Z</time>
      </trkpt>
      <trkpt lat="44.34627" lon="2.51633">
        <ele>606</ele>
        <time>2013-08-29T18:08:42Z</time>
      </trkpt>
      <trkpt lat="44.34633" lon="2.5163">
        <ele>606</ele>
        <time>2013-08-29T18:08:44Z</time>
      </trkpt>
      <trkpt lat="44.34641" lon="2.51628">
        <ele>606</ele>
        <time>2013-08-29T18:08:46Z</time>
      </trkpt>
      <trkpt lat="44.3465" lon="2.51628">
        <ele>606</ele>
        <time>2013-08-29T18:08:48Z</time>
      </trkpt>
      <trkpt lat="44.34658" lon="2.51628">
        <ele>606</ele>
        <time>2013-08-29T18:08:50Z</time>
      </trkpt>
      <trkpt lat="44.34665" lon="2.51628">
        <ele>606</ele>
        <time>2013-08-29T18:08:52Z</time>
      </trkpt>
      <trkpt lat="44.34672" lon="2.5163">
        <ele>605</ele>
        <time>2013-08-29T18:08:54Z</time>
      </trkpt>
      <trkpt lat="44.3468" lon="2.5163">
        <ele>605</ele>
        <time>2013-08-29T18:08:56Z</time>
      </trkpt>
      <trkpt lat="44.34687" lon="2.51632">
        <ele>605</ele>
        <time>2013-08-29T18:08:58Z</time>
      </trkpt>
      <trkpt lat="44.34692" lon="2.51633">
        <ele>605</ele>
        <time>2013-08-29T18:08:59Z</time>
      </trkpt>
      <trkpt lat="44.347" lon="2.51634">
        <ele>605</ele>
        <time>2013-08-29T18:09:01Z</time>
      </trkpt>
      <trkpt lat="44.34709" lon="2.51635">
        <ele>605</ele>
        <time>2013-08-29T18:09:03Z</time>
      </trkpt>
      <trkpt lat="44.34714" lon="2.51636">
        <ele>605</ele>
        <time>2013-08-29T18:09:04Z</time>
      </trkpt>
      <trkpt lat="44.34718" lon="2.51638">
        <ele>606</ele>
        <time>2013-08-29T18:09:05Z</time>
      </trkpt>
      <trkpt lat="44.34725" lon="2.51638">
        <ele>606</ele>
        <time>2013-08-29T18:09:07Z</time>
      </trkpt>
      <trkpt lat="44.34733" lon="2.51638">
        <ele>607</ele>
        <time>2013-08-29T18:09:09Z</time>
      </trkpt>
      <trkpt lat="44.34741" lon="2.51639">
        <ele>608</ele>
        <time>2013-08-29T18:09:11Z</time>
      </trkpt>
      <trkpt lat="44.34749" lon="2.5164">
        <ele>608</ele>
        <time>2013-08-29T18:09:13Z</time>
      </trkpt>
      <trkpt lat="44.34757" lon="2.5164">
        <ele>607</ele>
        <time>2013-08-29T18:09:15Z</time>
      </trkpt>
      <trkpt lat="44.34765" lon="2.51641">
        <ele>607</ele>
        <time>2013-08-29T18:09:17Z</time>
      </trkpt>
      <trkpt lat="44.34773" lon="2.51642">
        <ele>607</ele>
        <time>2013-08-29T18:09:19Z</time>
      </trkpt>
      <trkpt lat="44.34781" lon="2.51644">
        <ele>607</ele>
        <time>2013-08-29T18:09:21Z</time>
      </trkpt>
      <trkpt lat="44.34788" lon="2.51645">
        <ele>607</ele>
        <time>2013-08-29T18:09:23Z</time>
      </trkpt>
      <trkpt lat="44.34795" lon="2.51647">
        <ele>608</ele>
        <time>2013-08-29T18:09:25Z</time>
      </trkpt>
      <trkpt lat="44.34803" lon="2.51649">
        <ele>608</ele>
        <time>2013-08-29T18:09:27Z</time>
      </trkpt>
      <trkpt lat="44.34811" lon="2.5165">
        <ele>608</ele>
        <time>2013-08-29T18:09:29Z</time>
      </trkpt>
      <trkpt lat="44.34819" lon="2.5165">
        <ele>607</ele>
        <time>2013-08-29T18:09:31Z</time>
      </trkpt>
      <trkpt lat="44.34826" lon="2.5165">
        <ele>607</ele>
        <time>2013-08-29T18:09:33Z</time>
      </trkpt>
      <trkpt lat="44.34833" lon="2.51649">
        <ele>607</ele>
        <time>2013-08-29T18:09:35Z</time>
      </trkpt>
      <trkpt lat="44.34841" lon="2.51649">
        <ele>607</ele>
        <time>2013-08-29T18:09:37Z</time>
      </trkpt>
      <trkpt lat="44.34849" lon="2.5165">
        <ele>607</ele>
        <time>2013-08-29T18:09:39Z</time>
      </trkpt>
      <trkpt lat="44.34857" lon="2.5165">
        <ele>606</ele>
        <time>2013-08-29T18:09:41Z</time>
      </trkpt>
      <trkpt lat="44.34865" lon="2.5165">
        <ele>605</ele>
        <time>2013-08-29T18:09:43Z</time>
      </trkpt>
      <trkpt lat="44.34874" lon="2.5165">
        <ele>604</ele>
        <time>2013-08-29T18:09:45Z</time>
      </trkpt>
      <trkpt lat="44.34882" lon="2.51651">
        <ele>604</ele>
        <time>2013-08-29T18:09:47Z</time>
      </trkpt>
      <trkpt lat="44.34891" lon="2.51651">
        <ele>602</ele>
        <time>2013-08-29T18:09:49Z</time>
      </trkpt>
      <trkpt lat="44.34899" lon="2.51652">
        <ele>601</ele>
        <time>2013-08-29T18:09:51Z</time>
      </trkpt>
      <trkpt lat="44.34906" lon="2.51652">
        <ele>600</ele>
        <time>2013-08-29T18:09:53Z</time>
      </trkpt>
      <trkpt lat="44.34915" lon="2.51651">
        <ele>599</ele>
        <time>2013-08-29T18:09:55Z</time>
      </trkpt>
      <trkpt lat="44.34921" lon="2.51651">
        <ele>599</ele>
        <time>2013-08-29T18:09:57Z</time>
      </trkpt>
      <trkpt lat="44.34927" lon="2.51649">
        <ele>598</ele>
        <time>2013-08-29T18:10:09Z</time>
      </trkpt>
      <trkpt lat="44.34931" lon="2.5165">
        <ele>598</ele>
        <time>2013-08-29T18:10:11Z</time>
      </trkpt>
      <trkpt lat="44.34936" lon="2.5165">
        <ele>598</ele>
        <time>2013-08-29T18:10:14Z</time>
      </trkpt>
      <trkpt lat="44.34942" lon="2.5165">
        <ele>598</ele>
        <time>2013-08-29T18:10:17Z</time>
      </trkpt>
      <trkpt lat="44.34946" lon="2.51648">
        <ele>598</ele>
        <time>2013-08-29T18:10:20Z</time>
      </trkpt>
      <trkpt lat="44.34952" lon="2.51647">
        <ele>598</ele>
        <time>2013-08-29T18:10:23Z</time>
      </trkpt>
      <trkpt lat="44.34957" lon="2.51646">
        <ele>596</ele>
        <time>2013-08-29T18:10:26Z</time>
      </trkpt>
      <trkpt lat="44.34962" lon="2.51646">
        <ele>595</ele>
        <time>2013-08-29T18:10:29Z</time>
      </trkpt>
      <trkpt lat="44.34967" lon="2.51644">
        <ele>594</ele>
        <time>2013-08-29T18:10:33Z</time>
      </trkpt>
      <trkpt lat="44.34972" lon="2.51641">
        <ele>593</ele>
        <time>2013-08-29T18:10:36Z</time>
      </trkpt>
      <trkpt lat="44.34978" lon="2.51635">
        <ele>592</ele>
        <time>2013-08-29T18:10:40Z</time>
      </trkpt>
      <trkpt lat="44.34983" lon="2.51632">
        <ele>590</ele>
        <time>2013-08-29T18:10:44Z</time>
      </trkpt>
      <trkpt lat="44.34987" lon="2.51629">
        <ele>590</ele>
        <time>2013-08-29T18:10:47Z</time>
      </trkpt>
      <trkpt lat="44.34993" lon="2.51627">
        <ele>589</ele>
        <time>2013-08-29T18:10:50Z</time>
      </trkpt>
      <trkpt lat="44.34997" lon="2.51625">
        <ele>590</ele>
        <time>2013-08-29T18:10:53Z</time>
      </trkpt>
      <trkpt lat="44.35002" lon="2.51622">
        <ele>590</ele>
        <time>2013-08-29T18:10:56Z</time>
      </trkpt>
      <trkpt lat="44.35007" lon="2.5162">
        <ele>590</ele>
        <time>2013-08-29T18:10:59Z</time>
      </trkpt>
      <trkpt lat="44.35014" lon="2.51611">
        <ele>590</ele>
        <time>2013-08-29T18:11:04Z</time>
      </trkpt>
      <trkpt lat="44.35018" lon="2.51604">
        <ele>589</ele>
        <time>2013-08-29T18:11:07Z</time>
      </trkpt>
      <trkpt lat="44.35022" lon="2.51597">
        <ele>589</ele>
        <time>2013-08-29T18:11:10Z</time>
      </trkpt>
      <trkpt lat="44.35025" lon="2.51592">
        <ele>589</ele>
        <time>2013-08-29T18:11:14Z</time>
      </trkpt>
      <trkpt lat="44.35028" lon="2.51584">
        <ele>588</ele>
        <time>2013-08-29T18:11:18Z</time>
      </trkpt>
      <trkpt lat="44.35031" lon="2.51579">
        <ele>588</ele>
        <time>2013-08-29T18:11:21Z</time>
      </trkpt>
      <trkpt lat="44.35034" lon="2.51573">
        <ele>587</ele>
        <time>2013-08-29T18:11:24Z</time>
      </trkpt>
      <trkpt lat="44.35037" lon="2.51569">
        <ele>587</ele>
        <time>2013-08-29T18:11:27Z</time>
      </trkpt>
      <trkpt lat="44.35042" lon="2.51564">
        <ele>587</ele>
        <time>2013-08-29T18:11:30Z</time>
      </trkpt>
      <trkpt lat="44.35047" lon="2.5156">
        <ele>587</ele>
        <time>2013-08-29T18:11:34Z</time>
      </trkpt>
      <trkpt lat="44.35053" lon="2.51559">
        <ele>586</ele>
        <time>2013-08-29T18:11:38Z</time>
      </trkpt>
      <trkpt lat="44.35057" lon="2.5156">
        <ele>585</ele>
        <time>2013-08-29T18:11:41Z</time>
      </trkpt>
      <trkpt lat="44.35062" lon="2.51561">
        <ele>585</ele>
        <time>2013-08-29T18:11:44Z</time>
      </trkpt>
      <trkpt lat="44.35067" lon="2.51563">
        <ele>584</ele>
        <time>2013-08-29T18:11:47Z</time>
      </trkpt>
      <trkpt lat="44.35074" lon="2.51566">
        <ele>583</ele>
        <time>2013-08-29T18:11:51Z</time>
      </trkpt>
      <trkpt lat="44.35079" lon="2.51569">
        <ele>583</ele>
        <time>2013-08-29T18:11:54Z</time>
      </trkpt>
      <trkpt lat="44.35088" lon="2.51569">
        <ele>583</ele>
        <time>2013-08-29T18:11:59Z</time>
      </trkpt>
      <trkpt lat="44.35093" lon="2.5157">
        <ele>582</ele>
        <time>2013-08-29T18:12:02Z</time>
      </trkpt>
      <trkpt lat="44.35098" lon="2.51571">
        <ele>581</ele>
        <time>2013-08-29T18:12:06Z</time>
      </trkpt>
      <trkpt lat="44.35104" lon="2.51572">
        <ele>580</ele>
        <time>2013-08-29T18:12:10Z</time>
      </trkpt>
      <trkpt lat="44.35108" lon="2.51568">
        <ele>579</ele>
        <time>2013-08-29T18:12:15Z</time>
      </trkpt>
      <trkpt lat="44.35111" lon="2.51561">
        <ele>580</ele>
        <time>2013-08-29T18:12:19Z</time>
      </trkpt>
      <trkpt lat="44.35116" lon="2.51555">
        <ele>578</ele>
        <time>2013-08-29T18:12:24Z</time>
      </trkpt>
      <trkpt lat="44.35121" lon="2.5155">
        <ele>578</ele>
        <time>2013-08-29T18:12:27Z</time>
      </trkpt>
      <trkpt lat="44.35125" lon="2.51546">
        <ele>578</ele>
        <time>2013-08-29T18:12:30Z</time>
      </trkpt>
      <trkpt lat="44.35131" lon="2.5154">
        <ele>577</ele>
        <time>2013-08-29T18:12:35Z</time>
      </trkpt>
      <trkpt lat="44.35136" lon="2.51537">
        <ele>577</ele>
        <time>2013-08-29T18:12:38Z</time>
      </trkpt>
      <trkpt lat="44.35142" lon="2.51534">
        <ele>577</ele>
        <time>2013-08-29T18:12:42Z</time>
      </trkpt>
      <trkpt lat="44.35147" lon="2.51531">
        <ele>578</ele>
        <time>2013-08-29T18:12:45Z</time>
      </trkpt>
      <trkpt lat="44.35151" lon="2.51528">
        <ele>580</ele>
        <time>2013-08-29T18:12:48Z</time>
      </trkpt>
      <trkpt lat="44.35156" lon="2.51524">
        <ele>581</ele>
        <time>2013-08-29T18:12:54Z</time>
      </trkpt>
      <trkpt lat="44.3516" lon="2.51519">
        <ele>581</ele>
        <time>2013-08-29T18:12:58Z</time>
      </trkpt>
      <trkpt lat="44.35165" lon="2.51515">
        <ele>581</ele>
        <time>2013-08-29T18:13:02Z</time>
      </trkpt>
      <trkpt lat="44.35171" lon="2.51512">
        <ele>580</ele>
        <time>2013-08-29T18:13:06Z</time>
      </trkpt>
      <trkpt lat="44.3518" lon="2.5151">
        <ele>579</ele>
        <time>2013-08-29T18:13:12Z</time>
      </trkpt>
      <trkpt lat="44.35188" lon="2.51504">
        <ele>580</ele>
        <time>2013-08-29T18:13:20Z</time>
      </trkpt>
      <trkpt lat="44.35193" lon="2.51499">
        <ele>579</ele>
        <time>2013-08-29T18:13:23Z</time>
      </trkpt>
      <trkpt lat="44.35198" lon="2.51493">
        <ele>578</ele>
        <time>2013-08-29T18:13:27Z</time>
      </trkpt>
      <trkpt lat="44.35207" lon="2.51483">
        <ele>574</ele>
        <time>2013-08-29T18:13:36Z</time>
      </trkpt>
      <trkpt lat="44.3521" lon="2.51469">
        <ele>571</ele>
        <time>2013-08-29T18:13:43Z</time>
      </trkpt>
      <trkpt lat="44.35209" lon="2.51455">
        <ele>569</ele>
        <time>2013-08-29T18:13:50Z</time>
      </trkpt>
      <trkpt lat="44.35207" lon="2.51443">
        <ele>567</ele>
        <time>2013-08-29T18:13:55Z</time>
      </trkpt>
      <trkpt lat="44.35203" lon="2.51431">
        <ele>565</ele>
        <time>2013-08-29T18:14:03Z</time>
      </trkpt>
      <trkpt lat="44.35195" lon="2.51422">
        <ele>564</ele>
        <time>2013-08-29T18:14:09Z</time>
      </trkpt>
      <trkpt lat="44.35184" lon="2.5141">
        <ele>563</ele>
        <time>2013-08-29T18:14:17Z</time>
      </trkpt>
      <trkpt lat="44.35175" lon="2.51401">
        <ele>563</ele>
        <time>2013-08-29T18:14:23Z</time>
      </trkpt>
      <trkpt lat="44.35172" lon="2.51396">
        <ele>563</ele>
        <time>2013-08-29T18:14:26Z</time>
      </trkpt>
      <trkpt lat="44.35169" lon="2.5139">
        <ele>562</ele>
        <time>2013-08-29T18:14:30Z</time>
      </trkpt>
      <trkpt lat="44.35165" lon="2.51384">
        <ele>561</ele>
        <time>2013-08-29T18:14:34Z</time>
      </trkpt>
      <trkpt lat="44.35159" lon="2.51377">
        <ele>562</ele>
        <time>2013-08-29T18:14:39Z</time>
      </trkpt>
      <trkpt lat="44.35152" lon="2.51365">
        <ele>562</ele>
        <time>2013-08-29T18:14:50Z</time>
      </trkpt>
      <trkpt lat="44.35145" lon="2.51356">
        <ele>561</ele>
        <time>2013-08-29T18:14:56Z</time>
      </trkpt>
      <trkpt lat="44.35137" lon="2.51344">
        <ele>557</ele>
        <time>2013-08-29T18:15:04Z</time>
      </trkpt>
      <trkpt lat="44.35129" lon="2.51332">
        <ele>555</ele>
        <time>2013-08-29T18:15:11Z</time>
      </trkpt>
      <trkpt lat="44.35125" lon="2.51321">
        <ele>553</ele>
        <time>2013-08-29T18:15:17Z</time>
      </trkpt>
      <trkpt lat="44.35119" lon="2.51305">
        <ele>552</ele>
        <time>2013-08-29T18:15:24Z</time>
      </trkpt>
      <trkpt lat="44.35115" lon="2.51292">
        <ele>552</ele>
        <time>2013-08-29T18:15:27Z</time>
      </trkpt>
      <trkpt lat="44.35108" lon="2.51279">
        <ele>549</ele>
        <time>2013-08-29T18:15:31Z</time>
      </trkpt>
      <trkpt lat="44.35102" lon="2.51266">
        <ele>545</ele>
        <time>2013-08-29T18:15:35Z</time>
      </trkpt>
      <trkpt lat="44.35094" lon="2.51256">
        <ele>540</ele>
        <time>2013-08-29T18:15:39Z</time>
      </trkpt>
      <trkpt lat="44.35087" lon="2.51245">
        <ele>538</ele>
        <time>2013-08-29T18:15:42Z</time>
      </trkpt>
      <trkpt lat="44.35084" lon="2.51239">
        <ele>537</ele>
        <time>2013-08-29T18:15:43Z</time>
      </trkpt>
      <trkpt lat="44.35081" lon="2.51232">
        <ele>534</ele>
        <time>2013-08-29T18:15:45Z</time>
      </trkpt>
      <trkpt lat="44.35076" lon="2.51224">
        <ele>531</ele>
        <time>2013-08-29T18:15:47Z</time>
      </trkpt>
      <trkpt lat="44.35072" lon="2.51218">
        <ele>530</ele>
        <time>2013-08-29T18:15:49Z</time>
      </trkpt>
      <trkpt lat="44.35066" lon="2.51218">
        <ele>528</ele>
        <time>2013-08-29T18:15:54Z</time>
      </trkpt>
      <trkpt lat="44.35061" lon="2.51222">
        <ele>527</ele>
        <time>2013-08-29T18:15:57Z</time>
      </trkpt>
      <trkpt lat="44.35055" lon="2.51225">
        <ele>526</ele>
        <time>2013-08-29T18:16:00Z</time>
      </trkpt>
      <trkpt lat="44.35049" lon="2.51223">
        <ele>525</ele>
        <time>2013-08-29T18:16:02Z</time>
      </trkpt>
      <trkpt lat="44.35044" lon="2.51222">
        <ele>524</ele>
        <time>2013-08-29T18:16:03Z</time>
      </trkpt>
      <trkpt lat="44.35037" lon="2.51219">
        <ele>523</ele>
        <time>2013-08-29T18:16:04Z</time>
      </trkpt>
      <trkpt lat="44.35032" lon="2.51215">
        <ele>522</ele>
        <time>2013-08-29T18:16:05Z</time>
      </trkpt>
      <trkpt lat="44.35026" lon="2.51209">
        <ele>522</ele>
        <time>2013-08-29T18:16:06Z</time>
      </trkpt>
      <trkpt lat="44.35021" lon="2.51204">
        <ele>522</ele>
        <time>2013-08-29T18:16:07Z</time>
      </trkpt>
      <trkpt lat="44.35017" lon="2.51199">
        <ele>523</ele>
        <time>2013-08-29T18:16:08Z</time>
      </trkpt>
      <trkpt lat="44.35013" lon="2.51196">
        <ele>523</ele>
        <time>2013-08-29T18:16:09Z</time>
      </trkpt>
      <trkpt lat="44.35006" lon="2.51189">
        <ele>525</ele>
        <time>2013-08-29T18:16:11Z</time>
      </trkpt>
      <trkpt lat="44.34999" lon="2.51181">
        <ele>525</ele>
        <time>2013-08-29T18:16:13Z</time>
      </trkpt>
      <trkpt lat="44.34997" lon="2.51176">
        <ele>525</ele>
        <time>2013-08-29T18:16:14Z</time>
      </trkpt>
      <trkpt lat="44.34994" lon="2.51169">
        <ele>525</ele>
        <time>2013-08-29T18:16:15Z</time>
      </trkpt>
      <trkpt lat="44.34991" lon="2.51163">
        <ele>525</ele>
        <time>2013-08-29T18:16:16Z</time>
      </trkpt>
      <trkpt lat="44.34987" lon="2.51157">
        <ele>525</ele>
        <time>2013-08-29T18:16:17Z</time>
      </trkpt>
      <trkpt lat="44.34983" lon="2.51149">
        <ele>525</ele>
        <time>2013-08-29T18:16:19Z</time>
      </trkpt>
      <trkpt lat="44.34979" lon="2.51142">
        <ele>525</ele>
        <time>2013-08-29T18:16:21Z</time>
      </trkpt>
      <trkpt lat="44.34974" lon="2.51136">
        <ele>525</ele>
        <time>2013-08-29T18:16:23Z</time>
      </trkpt>
      <trkpt lat="44.34969" lon="2.51131">
        <ele>526</ele>
        <time>2013-08-29T18:16:25Z</time>
      </trkpt>
      <trkpt lat="44.34963" lon="2.51127">
        <ele>526</ele>
        <time>2013-08-29T18:16:27Z</time>
      </trkpt>
      <trkpt lat="44.34959" lon="2.51124">
        <ele>525</ele>
        <time>2013-08-29T18:16:29Z</time>
      </trkpt>
      <trkpt lat="44.34953" lon="2.51121">
        <ele>525</ele>
        <time>2013-08-29T18:16:31Z</time>
      </trkpt>
      <trkpt lat="44.34949" lon="2.51115">
        <ele>525</ele>
        <time>2013-08-29T18:16:33Z</time>
      </trkpt>
      <trkpt lat="44.3494" lon="2.51109">
        <ele>525</ele>
        <time>2013-08-29T18:16:37Z</time>
      </trkpt>
      <trkpt lat="44.34929" lon="2.51106">
        <ele>523</ele>
        <time>2013-08-29T18:16:41Z</time>
      </trkpt>
      <trkpt lat="44.34919" lon="2.51104">
        <ele>523</ele>
        <time>2013-08-29T18:16:45Z</time>
      </trkpt>
      <trkpt lat="44.34913" lon="2.51099">
        <ele>521</ele>
        <time>2013-08-29T18:16:47Z</time>
      </trkpt>
      <trkpt lat="44.34906" lon="2.51095">
        <ele>521</ele>
        <time>2013-08-29T18:16:49Z</time>
      </trkpt>
      <trkpt lat="44.34894" lon="2.51088">
        <ele>520</ele>
        <time>2013-08-29T18:16:53Z</time>
      </trkpt>
      <trkpt lat="44.3489" lon="2.51085">
        <ele>519</ele>
        <time>2013-08-29T18:16:54Z</time>
      </trkpt>
      <trkpt lat="44.34885" lon="2.51082">
        <ele>519</ele>
        <time>2013-08-29T18:16:55Z</time>
      </trkpt>
      <trkpt lat="44.3488" lon="2.51075">
        <ele>518</ele>
        <time>2013-08-29T18:16:57Z</time>
      </trkpt>
      <trkpt lat="44.34874" lon="2.51068">
        <ele>516</ele>
        <time>2013-08-29T18:16:59Z</time>
      </trkpt>
      <trkpt lat="44.3487" lon="2.51062">
        <ele>515</ele>
        <time>2013-08-29T18:17:00Z</time>
      </trkpt>
      <trkpt lat="44.34867" lon="2.51057">
        <ele>514</ele>
        <time>2013-08-29T18:17:01Z</time>
      </trkpt>
      <trkpt lat="44.34864" lon="2.51052">
        <ele>514</ele>
        <time>2013-08-29T18:17:02Z</time>
      </trkpt>
      <trkpt lat="44.3486" lon="2.51047">
        <ele>513</ele>
        <time>2013-08-29T18:17:03Z</time>
      </trkpt>
      <trkpt lat="44.34856" lon="2.51042">
        <ele>513</ele>
        <time>2013-08-29T18:17:04Z</time>
      </trkpt>
      <trkpt lat="44.34849" lon="2.51034">
        <ele>514</ele>
        <time>2013-08-29T18:17:06Z</time>
      </trkpt>
      <trkpt lat="44.34846" lon="2.5103">
        <ele>514</ele>
        <time>2013-08-29T18:17:07Z</time>
      </trkpt>
      <trkpt lat="44.34841" lon="2.5102">
        <ele>516</ele>
        <time>2013-08-29T18:17:09Z</time>
      </trkpt>
      <trkpt lat="44.34836" lon="2.5101">
        <ele>517</ele>
        <time>2013-08-29T18:17:11Z</time>
      </trkpt>
      <trkpt lat="44.34832" lon="2.51">
        <ele>520</ele>
        <time>2013-08-29T18:17:14Z</time>
      </trkpt>
      <trkpt lat="44.34829" lon="2.50989">
        <ele>521</ele>
        <time>2013-08-29T18:17:16Z</time>
      </trkpt>
      <trkpt lat="44.34827" lon="2.5098">
        <ele>522</ele>
        <time>2013-08-29T18:17:18Z</time>
      </trkpt>
      <trkpt lat="44.34826" lon="2.5097">
        <ele>522</ele>
        <time>2013-08-29T18:17:20Z</time>
      </trkpt>
      <trkpt lat="44.34825" lon="2.50963">
        <ele>523</ele>
        <time>2013-08-29T18:17:21Z</time>
      </trkpt>
      <trkpt lat="44.34823" lon="2.50956">
        <ele>523</ele>
        <time>2013-08-29T18:17:22Z</time>
      </trkpt>
      <trkpt lat="44.34822" lon="2.50943">
        <ele>523</ele>
        <time>2013-08-29T18:17:25Z</time>
      </trkpt>
      <trkpt lat="44.34821" lon="2.50935">
        <ele>523</ele>
        <time>2013-08-29T18:17:27Z</time>
      </trkpt>
      <trkpt lat="44.34818" lon="2.50925">
        <ele>522</ele>
        <time>2013-08-29T18:17:29Z</time>
      </trkpt>
      <trkpt lat="44.34814" lon="2.50915">
        <ele>522</ele>
        <time>2013-08-29T18:17:32Z</time>
      </trkpt>
      <trkpt lat="44.34811" lon="2.5091">
        <ele>522</ele>
        <time>2013-08-29T18:17:34Z</time>
      </trkpt>
      <trkpt lat="44.34808" lon="2.50901">
        <ele>522</ele>
        <time>2013-08-29T18:17:36Z</time>
      </trkpt>
      <trkpt lat="44.34804" lon="2.50892">
        <ele>521</ele>
        <time>2013-08-29T18:17:38Z</time>
      </trkpt>
      <trkpt lat="44.348" lon="2.50884">
        <ele>521</ele>
        <time>2013-08-29T18:17:40Z</time>
      </trkpt>
      <trkpt lat="44.34796" lon="2.50879">
        <ele>521</ele>
        <time>2013-08-29T18:17:41Z</time>
      </trkpt>
      <trkpt lat="44.34793" lon="2.50875">
        <ele>521</ele>
        <time>2013-08-29T18:17:42Z</time>
      </trkpt>
      <trkpt lat="44.34787" lon="2.50868">
        <ele>520</ele>
        <time>2013-08-29T18:17:44Z</time>
      </trkpt>
      <trkpt lat="44.3478" lon="2.50859">
        <ele>520</ele>
        <time>2013-08-29T18:17:46Z</time>
      </trkpt>
      <trkpt lat="44.34774" lon="2.50853">
        <ele>521</ele>
        <time>2013-08-29T18:17:48Z</time>
      </trkpt>
      <trkpt lat="44.34767" lon="2.50849">
        <ele>521</ele>
        <time>2013-08-29T18:17:50Z</time>
      </trkpt>
      <trkpt lat="44.34763" lon="2.50845">
        <ele>521</ele>
        <time>2013-08-29T18:17:51Z</time>
      </trkpt>
      <trkpt lat="44.34757" lon="2.50842">
        <ele>522</ele>
        <time>2013-08-29T18:17:53Z</time>
      </trkpt>
      <trkpt lat="44.34748" lon="2.50837">
        <ele>522</ele>
        <time>2013-08-29T18:17:55Z</time>
      </trkpt>
      <trkpt lat="44.34741" lon="2.50832">
        <ele>522</ele>
        <time>2013-08-29T18:17:57Z</time>
      </trkpt>
      <trkpt lat="44.34735" lon="2.50826">
        <ele>522</ele>
        <time>2013-08-29T18:17:59Z</time>
      </trkpt>
      <trkpt lat="44.34729" lon="2.50818">
        <ele>523</ele>
        <time>2013-08-29T18:18:01Z</time>
      </trkpt>
      <trkpt lat="44.34727" lon="2.5081">
        <ele>523</ele>
        <time>2013-08-29T18:18:03Z</time>
      </trkpt>
      <trkpt lat="44.34726" lon="2.50803">
        <ele>524</ele>
        <time>2013-08-29T18:18:05Z</time>
      </trkpt>
      <trkpt lat="44.34723" lon="2.50796">
        <ele>525</ele>
        <time>2013-08-29T18:18:08Z</time>
      </trkpt>
      <trkpt lat="44.34719" lon="2.50786">
        <ele>525</ele>
        <time>2013-08-29T18:18:10Z</time>
      </trkpt>
      <trkpt lat="44.34719" lon="2.50779">
        <ele>525</ele>
        <time>2013-08-29T18:18:12Z</time>
      </trkpt>
      <trkpt lat="44.34718" lon="2.50771">
        <ele>524</ele>
        <time>2013-08-29T18:18:14Z</time>
      </trkpt>
      <trkpt lat="44.34717" lon="2.50764">
        <ele>523</ele>
        <time>2013-08-29T18:18:16Z</time>
      </trkpt>
      <trkpt lat="44.34717" lon="2.50754">
        <ele>522</ele>
        <time>2013-08-29T18:18:18Z</time>
      </trkpt>
      <trkpt lat="44.34718" lon="2.50747">
        <ele>521</ele>
        <time>2013-08-29T18:18:20Z</time>
      </trkpt>
      <trkpt lat="44.34718" lon="2.5074">
        <ele>521</ele>
        <time>2013-08-29T18:18:22Z</time>
      </trkpt>
      <trkpt lat="44.3472" lon="2.50728">
        <ele>518</ele>
        <time>2013-08-29T18:18:28Z</time>
      </trkpt>
      <trkpt lat="44.34718" lon="2.50713">
        <ele>515</ele>
        <time>2013-08-29T18:18:33Z</time>
      </trkpt>
      <trkpt lat="44.34714" lon="2.50702">
        <ele>514</ele>
        <time>2013-08-29T18:18:37Z</time>
      </trkpt>
      <trkpt lat="44.34706" lon="2.50692">
        <ele>512</ele>
        <time>2013-08-29T18:18:41Z</time>
      </trkpt>
      <trkpt lat="44.34696" lon="2.50681">
        <ele>512</ele>
        <time>2013-08-29T18:18:48Z</time>
      </trkpt>
      <trkpt lat="44.34689" lon="2.50672">
        <ele>513</ele>
        <time>2013-08-29T18:18:51Z</time>
      </trkpt>
      <trkpt lat="44.3467" lon="2.50653">
        <ele>527</ele>
        <time>2013-08-29T18:19:05Z</time>
      </trkpt>
      <trkpt lat="44.34664" lon="2.50656">
        <ele>539</ele>
        <time>2013-08-29T18:19:19Z</time>
      </trkpt>
      <trkpt lat="44.34668" lon="2.50668">
        <ele>545</ele>
        <time>2013-08-29T18:19:37Z</time>
      </trkpt>
      <trkpt lat="44.34672" lon="2.50685">
        <ele>547</ele>
        <time>2013-08-29T18:19:45Z</time>
      </trkpt>
      <trkpt lat="44.34675" lon="2.50698">
        <ele>549</ele>
        <time>2013-08-29T18:19:49Z</time>
      </trkpt>
      <trkpt lat="44.34674" lon="2.50713">
        <ele>550</ele>
        <time>2013-08-29T18:19:55Z</time>
      </trkpt>
      <trkpt lat="44.34673" lon="2.50725">
        <ele>553</ele>
        <time>2013-08-29T18:20:03Z</time>
      </trkpt>
      <trkpt lat="44.34671" lon="2.50738">
        <ele>558</ele>
        <time>2013-08-29T18:20:09Z</time>
      </trkpt>
      <trkpt lat="44.34668" lon="2.50753">
        <ele>561</ele>
        <time>2013-08-29T18:20:19Z</time>
      </trkpt>
      <trkpt lat="44.34668" lon="2.50766">
        <ele>562</ele>
        <time>2013-08-29T18:20:24Z</time>
      </trkpt>
      <trkpt lat="44.34667" lon="2.50782">
        <ele>565</ele>
        <time>2013-08-29T18:20:34Z</time>
      </trkpt>
      <trkpt lat="44.34669" lon="2.50797">
        <ele>567</ele>
        <time>2013-08-29T18:20:46Z</time>
      </trkpt>
      <trkpt lat="44.34665" lon="2.50812">
        <ele>569</ele>
        <time>2013-08-29T18:21:01Z</time>
      </trkpt>
      <trkpt lat="44.34657" lon="2.50821">
        <ele>566</ele>
        <time>2013-08-29T18:21:21Z</time>
      </trkpt>
      <trkpt lat="44.34649" lon="2.50829">
        <ele>564</ele>
        <time>2013-08-29T18:21:26Z</time>
      </trkpt>
      <trkpt lat="44.34642" lon="2.50827">
        <ele>571</ele>
        <time>2013-08-29T18:22:20Z</time>
      </trkpt>
      <trkpt lat="44.34641" lon="2.50809">
        <ele>574</ele>
        <time>2013-08-29T18:22:54Z</time>
      </trkpt>
      <trkpt lat="44.34645" lon="2.50796">
        <ele>578</ele>
        <time>2013-08-29T18:22:59Z</time>
      </trkpt>
      <trkpt lat="44.34647" lon="2.50781">
        <ele>580</ele>
        <time>2013-08-29T18:23:04Z</time>
      </trkpt>
      <trkpt lat="44.34646" lon="2.50767">
        <ele>580</ele>
        <time>2013-08-29T18:23:09Z</time>
      </trkpt>
      <trkpt lat="44.34645" lon="2.50752">
        <ele>578</ele>
        <time>2013-08-29T18:23:15Z</time>
      </trkpt>
      <trkpt lat="44.34641" lon="2.50739">
        <ele>576</ele>
        <time>2013-08-29T18:23:18Z</time>
      </trkpt>
      <trkpt lat="44.34637" lon="2.50725">
        <ele>574</ele>
        <time>2013-08-29T18:23:21Z</time>
      </trkpt>
      <trkpt lat="44.34635" lon="2.50719">
        <ele>573</ele>
        <time>2013-08-29T18:23:22Z</time>
      </trkpt>
      <trkpt lat="44.34633" lon="2.50713">
        <ele>573</ele>
        <time>2013-08-29T18:23:23Z</time>
      </trkpt>
      <trkpt lat="44.3463" lon="2.50707">
        <ele>573</ele>
        <time>2013-08-29T18:23:24Z</time>
      </trkpt>
      <trkpt lat="44.34626" lon="2.50699">
        <ele>572</ele>
        <time>2013-08-29T18:23:26Z</time>
      </trkpt>
      <trkpt lat="44.34623" lon="2.50691">
        <ele>572</ele>
        <time>2013-08-29T18:23:29Z</time>
      </trkpt>
      <trkpt lat="44.34622" lon="2.50684">
        <ele>572</ele>
        <time>2013-08-29T18:23:31Z</time>
      </trkpt>
      <trkpt lat="44.34623" lon="2.50676">
        <ele>572</ele>
        <time>2013-08-29T18:23:34Z</time>
      </trkpt>
      <trkpt lat="44.34621" lon="2.50669">
        <ele>572</ele>
        <time>2013-08-29T18:23:36Z</time>
      </trkpt>
      <trkpt lat="44.34617" lon="2.50665">
        <ele>571</ele>
        <time>2013-08-29T18:23:39Z</time>
      </trkpt>
      <trkpt lat="44.34607" lon="2.50651">
        <ele>569</ele>
        <time>2013-08-29T18:23:44Z</time>
      </trkpt>
      <trkpt lat="44.34605" lon="2.50645">
        <ele>569</ele>
        <time>2013-08-29T18:23:45Z</time>
      </trkpt>
      <trkpt lat="44.34603" lon="2.50636">
        <ele>568</ele>
        <time>2013-08-29T18:23:47Z</time>
      </trkpt>
      <trkpt lat="44.34601" lon="2.50628">
        <ele>567</ele>
        <time>2013-08-29T18:23:49Z</time>
      </trkpt>
      <trkpt lat="44.346" lon="2.50618">
        <ele>567</ele>
        <time>2013-08-29T18:23:51Z</time>
      </trkpt>
      <trkpt lat="44.34598" lon="2.50602">
        <ele>567</ele>
        <time>2013-08-29T18:23:55Z</time>
      </trkpt>
      <trkpt lat="44.34595" lon="2.50596">
        <ele>567</ele>
        <time>2013-08-29T18:23:57Z</time>
      </trkpt>
      <trkpt lat="44.34593" lon="2.50589">
        <ele>566</ele>
        <time>2013-08-29T18:23:59Z</time>
      </trkpt>
      <trkpt lat="44.34591" lon="2.5058">
        <ele>565</ele>
        <time>2013-08-29T18:24:01Z</time>
      </trkpt>
      <trkpt lat="44.3459" lon="2.50573">
        <ele>565</ele>
        <time>2013-08-29T18:24:02Z</time>
      </trkpt>
      <trkpt lat="44.34588" lon="2.50565">
        <ele>564</ele>
        <time>2013-08-29T18:24:04Z</time>
      </trkpt>
      <trkpt lat="44.34587" lon="2.50552">
        <ele>562</ele>
        <time>2013-08-29T18:24:07Z</time>
      </trkpt>
      <trkpt lat="44.34586" lon="2.50543">
        <ele>561</ele>
        <time>2013-08-29T18:24:09Z</time>
      </trkpt>
      <trkpt lat="44.34582" lon="2.50529">
        <ele>559</ele>
        <time>2013-08-29T18:24:12Z</time>
      </trkpt>
      <trkpt lat="44.34566" lon="2.50503">
        <ele>555</ele>
        <time>2013-08-29T18:24:18Z</time>
      </trkpt>
      <trkpt lat="44.34563" lon="2.50498">
        <ele>554</ele>
        <time>2013-08-29T18:24:19Z</time>
      </trkpt>
      <trkpt lat="44.34561" lon="2.50492">
        <ele>554</ele>
        <time>2013-08-29T18:24:20Z</time>
      </trkpt>
      <trkpt lat="44.34559" lon="2.50487">
        <ele>553</ele>
        <time>2013-08-29T18:24:21Z</time>
      </trkpt>
      <trkpt lat="44.34553" lon="2.50478">
        <ele>553</ele>
        <time>2013-08-29T18:24:23Z</time>
      </trkpt>
      <trkpt lat="44.34549" lon="2.50473">
        <ele>553</ele>
        <time>2013-08-29T18:24:24Z</time>
      </trkpt>
      <trkpt lat="44.34546" lon="2.50467">
        <ele>553</ele>
        <time>2013-08-29T18:24:25Z</time>
      </trkpt>
      <trkpt lat="44.34542" lon="2.5046">
        <ele>554</ele>
        <time>2013-08-29T18:24:27Z</time>
      </trkpt>
      <trkpt lat="44.34537" lon="2.50454">
        <ele>554</ele>
        <time>2013-08-29T18:24:29Z</time>
      </trkpt>
      <trkpt lat="44.34533" lon="2.50448">
        <ele>554</ele>
        <time>2013-08-29T18:24:30Z</time>
      </trkpt>
      <trkpt lat="44.34529" lon="2.50443">
        <ele>554</ele>
        <time>2013-08-29T18:24:31Z</time>
      </trkpt>
      <trkpt lat="44.34525" lon="2.50438">
        <ele>554</ele>
        <time>2013-08-29T18:24:32Z</time>
      </trkpt>
      <trkpt lat="44.3452" lon="2.50432">
        <ele>554</ele>
        <time>2013-08-29T18:24:34Z</time>
      </trkpt>
      <trkpt lat="44.34516" lon="2.50423">
        <ele>554</ele>
        <time>2013-08-29T18:24:36Z</time>
      </trkpt>
      <trkpt lat="44.34512" lon="2.50415">
        <ele>554</ele>
        <time>2013-08-29T18:24:38Z</time>
      </trkpt>
      <trkpt lat="44.34508" lon="2.50407">
        <ele>554</ele>
        <time>2013-08-29T18:24:40Z</time>
      </trkpt>
      <trkpt lat="44.34506" lon="2.504">
        <ele>554</ele>
        <time>2013-08-29T18:24:42Z</time>
      </trkpt>
      <trkpt lat="44.34502" lon="2.50393">
        <ele>553</ele>
        <time>2013-08-29T18:24:44Z</time>
      </trkpt>
      <trkpt lat="44.34497" lon="2.50386">
        <ele>553</ele>
        <time>2013-08-29T18:24:46Z</time>
      </trkpt>
      <trkpt lat="44.34492" lon="2.50378">
        <ele>553</ele>
        <time>2013-08-29T18:24:48Z</time>
      </trkpt>
      <trkpt lat="44.34489" lon="2.5037">
        <ele>552</ele>
        <time>2013-08-29T18:24:50Z</time>
      </trkpt>
      <trkpt lat="44.34483" lon="2.50365">
        <ele>551</ele>
        <time>2013-08-29T18:24:52Z</time>
      </trkpt>
      <trkpt lat="44.34475" lon="2.50359">
        <ele>550</ele>
        <time>2013-08-29T18:24:54Z</time>
      </trkpt>
      <trkpt lat="44.34468" lon="2.50352">
        <ele>549</ele>
        <time>2013-08-29T18:24:56Z</time>
      </trkpt>
      <trkpt lat="44.34461" lon="2.50348">
        <ele>549</ele>
        <time>2013-08-29T18:24:58Z</time>
      </trkpt>
      <trkpt lat="44.34456" lon="2.50345">
        <ele>548</ele>
        <time>2013-08-29T18:25:00Z</time>
      </trkpt>
      <trkpt lat="44.34449" lon="2.50339">
        <ele>548</ele>
        <time>2013-08-29T18:25:02Z</time>
      </trkpt>
      <trkpt lat="44.34444" lon="2.50332">
        <ele>548</ele>
        <time>2013-08-29T18:25:04Z</time>
      </trkpt>
      <trkpt lat="44.3444" lon="2.50328">
        <ele>548</ele>
        <time>2013-08-29T18:25:05Z</time>
      </trkpt>
      <trkpt lat="44.34433" lon="2.50319">
        <ele>549</ele>
        <time>2013-08-29T18:25:07Z</time>
      </trkpt>
      <trkpt lat="44.34427" lon="2.50313">
        <ele>548</ele>
        <time>2013-08-29T18:25:09Z</time>
      </trkpt>
      <trkpt lat="44.34422" lon="2.50307">
        <ele>548</ele>
        <time>2013-08-29T18:25:11Z</time>
      </trkpt>
      <trkpt lat="44.34419" lon="2.50302">
        <ele>548</ele>
        <time>2013-08-29T18:25:12Z</time>
      </trkpt>
      <trkpt lat="44.34415" lon="2.50294">
        <ele>549</ele>
        <time>2013-08-29T18:25:14Z</time>
      </trkpt>
      <trkpt lat="44.34411" lon="2.50285">
        <ele>549</ele>
        <time>2013-08-29T18:25:16Z</time>
      </trkpt>
      <trkpt lat="44.34407" lon="2.50278">
        <ele>550</ele>
        <time>2013-08-29T18:25:18Z</time>
      </trkpt>
      <trkpt lat="44.34404" lon="2.5027">
        <ele>550</ele>
        <time>2013-08-29T18:25:20Z</time>
      </trkpt>
      <trkpt lat="44.34401" lon="2.50262">
        <ele>551</ele>
        <time>2013-08-29T18:25:22Z</time>
      </trkpt>
      <trkpt lat="44.34397" lon="2.50254">
        <ele>551</ele>
        <time>2013-08-29T18:25:24Z</time>
      </trkpt>
      <trkpt lat="44.34394" lon="2.50248">
        <ele>551</ele>
        <time>2013-08-29T18:25:26Z</time>
      </trkpt>
      <trkpt lat="44.3439" lon="2.5024">
        <ele>552</ele>
        <time>2013-08-29T18:25:28Z</time>
      </trkpt>
      <trkpt lat="44.34382" lon="2.50231">
        <ele>552</ele>
        <time>2013-08-29T18:25:32Z</time>
      </trkpt>
      <trkpt lat="44.34376" lon="2.50227">
        <ele>552</ele>
        <time>2013-08-29T18:25:34Z</time>
      </trkpt>
      <trkpt lat="44.34371" lon="2.50221">
        <ele>553</ele>
        <time>2013-08-29T18:25:36Z</time>
      </trkpt>
      <trkpt lat="44.34366" lon="2.50217">
        <ele>554</ele>
        <time>2013-08-29T18:25:38Z</time>
      </trkpt>
      <trkpt lat="44.3436" lon="2.50215">
        <ele>555</ele>
        <time>2013-08-29T18:25:40Z</time>
      </trkpt>
      <trkpt lat="44.34354" lon="2.50212">
        <ele>555</ele>
        <time>2013-08-29T18:25:42Z</time>
      </trkpt>
      <trkpt lat="44.34348" lon="2.50209">
        <ele>555</ele>
        <time>2013-08-29T18:25:44Z</time>
      </trkpt>
      <trkpt lat="44.34343" lon="2.50209">
        <ele>555</ele>
        <time>2013-08-29T18:25:46Z</time>
      </trkpt>
      <trkpt lat="44.34336" lon="2.50206">
        <ele>556</ele>
        <time>2013-08-29T18:25:48Z</time>
      </trkpt>
      <trkpt lat="44.34329" lon="2.50206">
        <ele>557</ele>
        <time>2013-08-29T18:25:50Z</time>
      </trkpt>
      <trkpt lat="44.34323" lon="2.50205">
        <ele>557</ele>
        <time>2013-08-29T18:25:52Z</time>
      </trkpt>
      <trkpt lat="44.34316" lon="2.50204">
        <ele>557</ele>
        <time>2013-08-29T18:25:54Z</time>
      </trkpt>
      <trkpt lat="44.3431" lon="2.50201">
        <ele>557</ele>
        <time>2013-08-29T18:25:56Z</time>
      </trkpt>
      <trkpt lat="44.34303" lon="2.50197">
        <ele>557</ele>
        <time>2013-08-29T18:25:58Z</time>
      </trkpt>
      <trkpt lat="44.34295" lon="2.5019">
        <ele>558</ele>
        <time>2013-08-29T18:26:00Z</time>
      </trkpt>
      <trkpt lat="44.34291" lon="2.50187">
        <ele>558</ele>
        <time>2013-08-29T18:26:01Z</time>
      </trkpt>
      <trkpt lat="44.34284" lon="2.50179">
        <ele>558</ele>
        <time>2013-08-29T18:26:03Z</time>
      </trkpt>
      <trkpt lat="44.34277" lon="2.50172">
        <ele>558</ele>
        <time>2013-08-29T18:26:05Z</time>
      </trkpt>
      <trkpt lat="44.34273" lon="2.50168">
        <ele>558</ele>
        <time>2013-08-29T18:26:06Z</time>
      </trkpt>
      <trkpt lat="44.34268" lon="2.50162">
        <ele>558</ele>
        <time>2013-08-29T18:26:08Z</time>
      </trkpt>
      <trkpt lat="44.34263" lon="2.50155">
        <ele>558</ele>
        <time>2013-08-29T18:26:10Z</time>
      </trkpt>
      <trkpt lat="44.34257" lon="2.50149">
        <ele>558</ele>
        <time>2013-08-29T18:26:12Z</time>
      </trkpt>
      <trkpt lat="44.34253" lon="2.50143">
        <ele>558</ele>
        <time>2013-08-29T18:26:14Z</time>
      </trkpt>
      <trkpt lat="44.34246" lon="2.50145">
        <ele>560</ele>
        <time>2013-08-29T18:26:20Z</time>
      </trkpt>
      <trkpt lat="44.34246" lon="2.50153">
        <ele>560</ele>
        <time>2013-08-29T18:26:22Z</time>
      </trkpt>
      <trkpt lat="44.34246" lon="2.50162">
        <ele>560</ele>
        <time>2013-08-29T18:26:24Z</time>
      </trkpt>
      <trkpt lat="44.34246" lon="2.50172">
        <ele>561</ele>
        <time>2013-08-29T18:26:26Z</time>
      </trkpt>
      <trkpt lat="44.34248" lon="2.50181">
        <ele>561</ele>
        <time>2013-08-29T18:26:28Z</time>
      </trkpt>
      <trkpt lat="44.34251" lon="2.50188">
        <ele>561</ele>
        <time>2013-08-29T18:26:30Z</time>
      </trkpt>
      <trkpt lat="44.34255" lon="2.50195">
        <ele>561</ele>
        <time>2013-08-29T18:26:32Z</time>
      </trkpt>
      <trkpt lat="44.34258" lon="2.50202">
        <ele>561</ele>
        <time>2013-08-29T18:26:34Z</time>
      </trkpt>
      <trkpt lat="44.34263" lon="2.50208">
        <ele>562</ele>
        <time>2013-08-29T18:26:36Z</time>
      </trkpt>
      <trkpt lat="44.34267" lon="2.50214">
        <ele>562</ele>
        <time>2013-08-29T18:26:38Z</time>
      </trkpt>
      <trkpt lat="44.34269" lon="2.50221">
        <ele>563</ele>
        <time>2013-08-29T18:26:40Z</time>
      </trkpt>
      <trkpt lat="44.34273" lon="2.50228">
        <ele>564</ele>
        <time>2013-08-29T18:26:42Z</time>
      </trkpt>
      <trkpt lat="44.34279" lon="2.50236">
        <ele>564</ele>
        <time>2013-08-29T18:26:44Z</time>
      </trkpt>
      <trkpt lat="44.34283" lon="2.50243">
        <ele>565</ele>
        <time>2013-08-29T18:26:46Z</time>
      </trkpt>
      <trkpt lat="44.34287" lon="2.50252">
        <ele>565</ele>
        <time>2013-08-29T18:26:48Z</time>
      </trkpt>
      <trkpt lat="44.3429" lon="2.50261">
        <ele>565</ele>
        <time>2013-08-29T18:26:50Z</time>
      </trkpt>
      <trkpt lat="44.34294" lon="2.50269">
        <ele>565</ele>
        <time>2013-08-29T18:26:52Z</time>
      </trkpt>
      <trkpt lat="44.34298" lon="2.50277">
        <ele>566</ele>
        <time>2013-08-29T18:26:54Z</time>
      </trkpt>
      <trkpt lat="44.34301" lon="2.50284">
        <ele>566</ele>
        <time>2013-08-29T18:26:56Z</time>
      </trkpt>
      <trkpt lat="44.34305" lon="2.50293">
        <ele>566</ele>
        <time>2013-08-29T18:26:58Z</time>
      </trkpt>
      <trkpt lat="44.34309" lon="2.50301">
        <ele>567</ele>
        <time>2013-08-29T18:27:00Z</time>
      </trkpt>
      <trkpt lat="44.34312" lon="2.50309">
        <ele>567</ele>
        <time>2013-08-29T18:27:02Z</time>
      </trkpt>
      <trkpt lat="44.34315" lon="2.50317">
        <ele>567</ele>
        <time>2013-08-29T18:27:04Z</time>
      </trkpt>
      <trkpt lat="44.34317" lon="2.50326">
        <ele>567</ele>
        <time>2013-08-29T18:27:06Z</time>
      </trkpt>
      <trkpt lat="44.3432" lon="2.50332">
        <ele>568</ele>
        <time>2013-08-29T18:27:08Z</time>
      </trkpt>
      <trkpt lat="44.34324" lon="2.50338">
        <ele>568</ele>
        <time>2013-08-29T18:27:10Z</time>
      </trkpt>
      <trkpt lat="44.34328" lon="2.50344">
        <ele>568</ele>
        <time>2013-08-29T18:27:12Z</time>
      </trkpt>
      <trkpt lat="44.34331" lon="2.50348">
        <ele>568</ele>
        <time>2013-08-29T18:27:14Z</time>
      </trkpt>
      <trkpt lat="44.34335" lon="2.50353">
        <ele>568</ele>
        <time>2013-08-29T18:27:16Z</time>
      </trkpt>
      <trkpt lat="44.3434" lon="2.50358">
        <ele>568</ele>
        <time>2013-08-29T18:27:18Z</time>
      </trkpt>
      <trkpt lat="44.34343" lon="2.50365">
        <ele>568</ele>
        <time>2013-08-29T18:27:20Z</time>
      </trkpt>
      <trkpt lat="44.34347" lon="2.50372">
        <ele>568</ele>
        <time>2013-08-29T18:27:22Z</time>
      </trkpt>
      <trkpt lat="44.3435" lon="2.50381">
        <ele>568</ele>
        <time>2013-08-29T18:27:24Z</time>
      </trkpt>
      <trkpt lat="44.34353" lon="2.50392">
        <ele>568</ele>
        <time>2013-08-29T18:27:26Z</time>
      </trkpt>
      <trkpt lat="44.34355" lon="2.50403">
        <ele>569</ele>
        <time>2013-08-29T18:27:28Z</time>
      </trkpt>
      <trkpt lat="44.34357" lon="2.50414">
        <ele>569</ele>
        <time>2013-08-29T18:27:30Z</time>
      </trkpt>
      <trkpt lat="44.34358" lon="2.5042">
        <ele>570</ele>
        <time>2013-08-29T18:27:31Z</time>
      </trkpt>
      <trkpt lat="44.3436" lon="2.50432">
        <ele>571</ele>
        <time>2013-08-29T18:27:33Z</time>
      </trkpt>
      <trkpt lat="44.3436" lon="2.50444">
        <ele>572</ele>
        <time>2013-08-29T18:27:35Z</time>
      </trkpt>
      <trkpt lat="44.3436" lon="2.5045">
        <ele>573</ele>
        <time>2013-08-29T18:27:36Z</time>
      </trkpt>
      <trkpt lat="44.3436" lon="2.50462">
        <ele>574</ele>
        <time>2013-08-29T18:27:38Z</time>
      </trkpt>
      <trkpt lat="44.3436" lon="2.50472">
        <ele>576</ele>
        <time>2013-08-29T18:27:40Z</time>
      </trkpt>
      <trkpt lat="44.34361" lon="2.5048">
        <ele>577</ele>
        <time>2013-08-29T18:27:42Z</time>
      </trkpt>
      <trkpt lat="44.34361" lon="2.50488">
        <ele>577</ele>
        <time>2013-08-29T18:27:44Z</time>
      </trkpt>
      <trkpt lat="44.3436" lon="2.50498">
        <ele>578</ele>
        <time>2013-08-29T18:27:46Z</time>
      </trkpt>
      <trkpt lat="44.34361" lon="2.5051">
        <ele>578</ele>
        <time>2013-08-29T18:27:48Z</time>
      </trkpt>
      <trkpt lat="44.34361" lon="2.50517">
        <ele>578</ele>
        <time>2013-08-29T18:27:49Z</time>
      </trkpt>
      <trkpt lat="44.34362" lon="2.50529">
        <ele>578</ele>
        <time>2013-08-29T18:27:51Z</time>
      </trkpt>
      <trkpt lat="44.34362" lon="2.50541">
        <ele>578</ele>
        <time>2013-08-29T18:27:53Z</time>
      </trkpt>
      <trkpt lat="44.34362" lon="2.50548">
        <ele>579</ele>
        <time>2013-08-29T18:27:54Z</time>
      </trkpt>
      <trkpt lat="44.34362" lon="2.50554">
        <ele>579</ele>
        <time>2013-08-29T18:27:55Z</time>
      </trkpt>
      <trkpt lat="44.34362" lon="2.50561">
        <ele>579</ele>
        <time>2013-08-29T18:27:56Z</time>
      </trkpt>
      <trkpt lat="44.34361" lon="2.50576">
        <ele>579</ele>
        <time>2013-08-29T18:27:58Z</time>
      </trkpt>
      <trkpt lat="44.34361" lon="2.50583">
        <ele>579</ele>
        <time>2013-08-29T18:27:59Z</time>
      </trkpt>
      <trkpt lat="44.3436" lon="2.50591">
        <ele>579</ele>
        <time>2013-08-29T18:28:00Z</time>
      </trkpt>
      <trkpt lat="44.34361" lon="2.50598">
        <ele>579</ele>
        <time>2013-08-29T18:28:01Z</time>
      </trkpt>
      <trkpt lat="44.3436" lon="2.50613">
        <ele>579</ele>
        <time>2013-08-29T18:28:03Z</time>
      </trkpt>
      <trkpt lat="44.3436" lon="2.5062">
        <ele>579</ele>
        <time>2013-08-29T18:28:04Z</time>
      </trkpt>
      <trkpt lat="44.3436" lon="2.50628">
        <ele>579</ele>
        <time>2013-08-29T18:28:05Z</time>
      </trkpt>
      <trkpt lat="44.34361" lon="2.50635">
        <ele>579</ele>
        <time>2013-08-29T18:28:06Z</time>
      </trkpt>
      <trkpt lat="44.34362" lon="2.50643">
        <ele>579</ele>
        <time>2013-08-29T18:28:07Z</time>
      </trkpt>
      <trkpt lat="44.34362" lon="2.50651">
        <ele>580</ele>
        <time>2013-08-29T18:28:08Z</time>
      </trkpt>
      <trkpt lat="44.34363" lon="2.50659">
        <ele>580</ele>
        <time>2013-08-29T18:28:09Z</time>
      </trkpt>
      <trkpt lat="44.34363" lon="2.50667">
        <ele>580</ele>
        <time>2013-08-29T18:28:10Z</time>
      </trkpt>
      <trkpt lat="44.34363" lon="2.50675">
        <ele>580</ele>
        <time>2013-08-29T18:28:11Z</time>
      </trkpt>
      <trkpt lat="44.34362" lon="2.50683">
        <ele>580</ele>
        <time>2013-08-29T18:28:12Z</time>
      </trkpt>
      <trkpt lat="44.34361" lon="2.5069">
        <ele>580</ele>
        <time>2013-08-29T18:28:13Z</time>
      </trkpt>
      <trkpt lat="44.3436" lon="2.50702">
        <ele>580</ele>
        <time>2013-08-29T18:28:15Z</time>
      </trkpt>
      <trkpt lat="44.34359" lon="2.5071">
        <ele>580</ele>
        <time>2013-08-29T18:28:16Z</time>
      </trkpt>
      <trkpt lat="44.34358" lon="2.50718">
        <ele>581</ele>
        <time>2013-08-29T18:28:17Z</time>
      </trkpt>
      <trkpt lat="44.34358" lon="2.50726">
        <ele>581</ele>
        <time>2013-08-29T18:28:18Z</time>
      </trkpt>
      <trkpt lat="44.34358" lon="2.50733">
        <ele>581</ele>
        <time>2013-08-29T18:28:19Z</time>
      </trkpt>
      <trkpt lat="44.34358" lon="2.50741">
        <ele>582</ele>
        <time>2013-08-29T18:28:20Z</time>
      </trkpt>
      <trkpt lat="44.34358" lon="2.50749">
        <ele>583</ele>
        <time>2013-08-29T18:28:21Z</time>
      </trkpt>
      <trkpt lat="44.3436" lon="2.50765">
        <ele>584</ele>
        <time>2013-08-29T18:28:23Z</time>
      </trkpt>
      <trkpt lat="44.34362" lon="2.50775">
        <ele>586</ele>
        <time>2013-08-29T18:28:24Z</time>
      </trkpt>
      <trkpt lat="44.34363" lon="2.50783">
        <ele>586</ele>
        <time>2013-08-29T18:28:25Z</time>
      </trkpt>
      <trkpt lat="44.34365" lon="2.50801">
        <ele>587</ele>
        <time>2013-08-29T18:28:27Z</time>
      </trkpt>
      <trkpt lat="44.3437" lon="2.50819">
        <ele>588</ele>
        <time>2013-08-29T18:28:29Z</time>
      </trkpt>
      <trkpt lat="44.34372" lon="2.5083">
        <ele>589</ele>
        <time>2013-08-29T18:28:30Z</time>
      </trkpt>
      <trkpt lat="44.34376" lon="2.50838">
        <ele>590</ele>
        <time>2013-08-29T18:28:31Z</time>
      </trkpt>
      <trkpt lat="44.34379" lon="2.50846">
        <ele>590</ele>
        <time>2013-08-29T18:28:32Z</time>
      </trkpt>
      <trkpt lat="44.34383" lon="2.50854">
        <ele>591</ele>
        <time>2013-08-29T18:28:33Z</time>
      </trkpt>
      <trkpt lat="44.34389" lon="2.50867">
        <ele>592</ele>
        <time>2013-08-29T18:28:35Z</time>
      </trkpt>
      <trkpt lat="44.34392" lon="2.50875">
        <ele>592</ele>
        <time>2013-08-29T18:28:36Z</time>
      </trkpt>
      <trkpt lat="44.34394" lon="2.50884">
        <ele>593</ele>
        <time>2013-08-29T18:28:37Z</time>
      </trkpt>
      <trkpt lat="44.34397" lon="2.50893">
        <ele>593</ele>
        <time>2013-08-29T18:28:38Z</time>
      </trkpt>
      <trkpt lat="44.34399" lon="2.50903">
        <ele>593</ele>
        <time>2013-08-29T18:28:39Z</time>
      </trkpt>
      <trkpt lat="44.34403" lon="2.50913">
        <ele>593</ele>
        <time>2013-08-29T18:28:40Z</time>
      </trkpt>
      <trkpt lat="44.34406" lon="2.50925">
        <ele>593</ele>
        <time>2013-08-29T18:28:41Z</time>
      </trkpt>
      <trkpt lat="44.34409" lon="2.50938">
        <ele>593</ele>
        <time>2013-08-29T18:28:42Z</time>
      </trkpt>
      <trkpt lat="44.34412" lon="2.50949">
        <ele>594</ele>
        <time>2013-08-29T18:28:43Z</time>
      </trkpt>
      <trkpt lat="44.34415" lon="2.50958">
        <ele>595</ele>
        <time>2013-08-29T18:28:44Z</time>
      </trkpt>
      <trkpt lat="44.34419" lon="2.50968">
        <ele>596</ele>
        <time>2013-08-29T18:28:45Z</time>
      </trkpt>
      <trkpt lat="44.34422" lon="2.50978">
        <ele>597</ele>
        <time>2013-08-29T18:28:46Z</time>
      </trkpt>
      <trkpt lat="44.34425" lon="2.50986">
        <ele>598</ele>
        <time>2013-08-29T18:28:47Z</time>
      </trkpt>
      <trkpt lat="44.34428" lon="2.50993">
        <ele>599</ele>
        <time>2013-08-29T18:28:48Z</time>
      </trkpt>
      <trkpt lat="44.34431" lon="2.51001">
        <ele>599</ele>
        <time>2013-08-29T18:28:49Z</time>
      </trkpt>
      <trkpt lat="44.34434" lon="2.51009">
        <ele>600</ele>
        <time>2013-08-29T18:28:50Z</time>
      </trkpt>
      <trkpt lat="44.34437" lon="2.51018">
        <ele>600</ele>
        <time>2013-08-29T18:28:51Z</time>
      </trkpt>
      <trkpt lat="44.3444" lon="2.51025">
        <ele>600</ele>
        <time>2013-08-29T18:28:52Z</time>
      </trkpt>
      <trkpt lat="44.34442" lon="2.51034">
        <ele>600</ele>
        <time>2013-08-29T18:28:53Z</time>
      </trkpt>
      <trkpt lat="44.34444" lon="2.51044">
        <ele>601</ele>
        <time>2013-08-29T18:28:54Z</time>
      </trkpt>
      <trkpt lat="44.34446" lon="2.51054">
        <ele>601</ele>
        <time>2013-08-29T18:28:55Z</time>
      </trkpt>
      <trkpt lat="44.34448" lon="2.51064">
        <ele>601</ele>
        <time>2013-08-29T18:28:56Z</time>
      </trkpt>
      <trkpt lat="44.34449" lon="2.51073">
        <ele>602</ele>
        <time>2013-08-29T18:28:57Z</time>
      </trkpt>
      <trkpt lat="44.3445" lon="2.51083">
        <ele>602</ele>
        <time>2013-08-29T18:28:58Z</time>
      </trkpt>
      <trkpt lat="44.34452" lon="2.51092">
        <ele>602</ele>
        <time>2013-08-29T18:28:59Z</time>
      </trkpt>
      <trkpt lat="44.34453" lon="2.51102">
        <ele>603</ele>
        <time>2013-08-29T18:29:00Z</time>
      </trkpt>
      <trkpt lat="44.34455" lon="2.51111">
        <ele>604</ele>
        <time>2013-08-29T18:29:01Z</time>
      </trkpt>
      <trkpt lat="44.34456" lon="2.51121">
        <ele>604</ele>
        <time>2013-08-29T18:29:02Z</time>
      </trkpt>
      <trkpt lat="44.34458" lon="2.5113">
        <ele>605</ele>
        <time>2013-08-29T18:29:03Z</time>
      </trkpt>
      <trkpt lat="44.34458" lon="2.5114">
        <ele>605</ele>
        <time>2013-08-29T18:29:04Z</time>
      </trkpt>
      <trkpt lat="44.34459" lon="2.51149">
        <ele>605</ele>
        <time>2013-08-29T18:29:05Z</time>
      </trkpt>
      <trkpt lat="44.3446" lon="2.51159">
        <ele>606</ele>
        <time>2013-08-29T18:29:06Z</time>
      </trkpt>
      <trkpt lat="44.34461" lon="2.51169">
        <ele>606</ele>
        <time>2013-08-29T18:29:07Z</time>
      </trkpt>
      <trkpt lat="44.34462" lon="2.51178">
        <ele>607</ele>
        <time>2013-08-29T18:29:08Z</time>
      </trkpt>
      <trkpt lat="44.34463" lon="2.51186">
        <ele>606</ele>
        <time>2013-08-29T18:29:09Z</time>
      </trkpt>
      <trkpt lat="44.34464" lon="2.51196">
        <ele>607</ele>
        <time>2013-08-29T18:29:10Z</time>
      </trkpt>
      <trkpt lat="44.34464" lon="2.51205">
        <ele>607</ele>
        <time>2013-08-29T18:29:11Z</time>
      </trkpt>
      <trkpt lat="44.34465" lon="2.51214">
        <ele>607</ele>
        <time>2013-08-29T18:29:12Z</time>
      </trkpt>
      <trkpt lat="44.34467" lon="2.51224">
        <ele>607</ele>
        <time>2013-08-29T18:29:13Z</time>
      </trkpt>
      <trkpt lat="44.34468" lon="2.51233">
        <ele>607</ele>
        <time>2013-08-29T18:29:14Z</time>
      </trkpt>
      <trkpt lat="44.3447" lon="2.51242">
        <ele>607</ele>
        <time>2013-08-29T18:29:15Z</time>
      </trkpt>
      <trkpt lat="44.34471" lon="2.51251">
        <ele>607</ele>
        <time>2013-08-29T18:29:16Z</time>
      </trkpt>
      <trkpt lat="44.34473" lon="2.51261">
        <ele>607</ele>
        <time>2013-08-29T18:29:17Z</time>
      </trkpt>
      <trkpt lat="44.34475" lon="2.51271">
        <ele>608</ele>
        <time>2013-08-29T18:29:18Z</time>
      </trkpt>
      <trkpt lat="44.34478" lon="2.5128">
        <ele>608</ele>
        <time>2013-08-29T18:29:19Z</time>
      </trkpt>
      <trkpt lat="44.3448" lon="2.5129">
        <ele>609</ele>
        <time>2013-08-29T18:29:20Z</time>
      </trkpt>
      <trkpt lat="44.34482" lon="2.513">
        <ele>610</ele>
        <time>2013-08-29T18:29:21Z</time>
      </trkpt>
      <trkpt lat="44.34485" lon="2.51309">
        <ele>611</ele>
        <time>2013-08-29T18:29:22Z</time>
      </trkpt>
      <trkpt lat="44.34488" lon="2.51319">
        <ele>611</ele>
        <time>2013-08-29T18:29:23Z</time>
      </trkpt>
      <trkpt lat="44.3449" lon="2.51329">
        <ele>611</ele>
        <time>2013-08-29T18:29:24Z</time>
      </trkpt>
      <trkpt lat="44.34493" lon="2.51339">
        <ele>612</ele>
        <time>2013-08-29T18:29:25Z</time>
      </trkpt>
      <trkpt lat="44.34496" lon="2.51348">
        <ele>612</ele>
        <time>2013-08-29T18:29:26Z</time>
      </trkpt>
      <trkpt lat="44.34499" lon="2.51358">
        <ele>612</ele>
        <time>2013-08-29T18:29:27Z</time>
      </trkpt>
      <trkpt lat="44.34501" lon="2.51367">
        <ele>612</ele>
        <time>2013-08-29T18:29:28Z</time>
      </trkpt>
      <trkpt lat="44.34504" lon="2.51376">
        <ele>613</ele>
        <time>2013-08-29T18:29:29Z</time>
      </trkpt>
      <trkpt lat="44.34506" lon="2.51386">
        <ele>613</ele>
        <time>2013-08-29T18:29:30Z</time>
      </trkpt>
      <trkpt lat="44.34508" lon="2.51395">
        <ele>613</ele>
        <time>2013-08-29T18:29:31Z</time>
      </trkpt>
      <trkpt lat="44.3451" lon="2.51405">
        <ele>613</ele>
        <time>2013-08-29T18:29:32Z</time>
      </trkpt>
      <trkpt lat="44.34512" lon="2.51414">
        <ele>613</ele>
        <time>2013-08-29T18:29:33Z</time>
      </trkpt>
      <trkpt lat="44.34513" lon="2.51423">
        <ele>613</ele>
        <time>2013-08-29T18:29:34Z</time>
      </trkpt>
      <trkpt lat="44.34515" lon="2.51433">
        <ele>613</ele>
        <time>2013-08-29T18:29:35Z</time>
      </trkpt>
      <trkpt lat="44.34517" lon="2.51442">
        <ele>613</ele>
        <time>2013-08-29T18:29:36Z</time>
      </trkpt>
      <trkpt lat="44.34519" lon="2.51451">
        <ele>613</ele>
        <time>2013-08-29T18:29:37Z</time>
      </trkpt>
      <trkpt lat="44.34521" lon="2.5146">
        <ele>613</ele>
        <time>2013-08-29T18:29:38Z</time>
      </trkpt>
      <trkpt lat="44.34523" lon="2.51469">
        <ele>613</ele>
        <time>2013-08-29T18:29:39Z</time>
      </trkpt>
      <trkpt lat="44.34524" lon="2.51479">
        <ele>613</ele>
        <time>2013-08-29T18:29:40Z</time>
      </trkpt>
      <trkpt lat="44.34526" lon="2.51488">
        <ele>614</ele>
        <time>2013-08-29T18:29:41Z</time>
      </trkpt>
      <trkpt lat="44.34527" lon="2.51497">
        <ele>614</ele>
        <time>2013-08-29T18:29:42Z</time>
      </trkpt>
      <trkpt lat="44.34528" lon="2.51505">
        <ele>614</ele>
        <time>2013-08-29T18:29:43Z</time>
      </trkpt>
      <trkpt lat="44.34529" lon="2.51513">
        <ele>614</ele>
        <time>2013-08-29T18:29:44Z</time>
      </trkpt>
      <trkpt lat="44.3453" lon="2.5152">
        <ele>614</ele>
        <time>2013-08-29T18:29:45Z</time>
      </trkpt>
      <trkpt lat="44.34531" lon="2.51526">
        <ele>614</ele>
        <time>2013-08-29T18:29:46Z</time>
      </trkpt>
      <trkpt lat="44.34533" lon="2.51537">
        <ele>615</ele>
        <time>2013-08-29T18:29:48Z</time>
      </trkpt>
      <trkpt lat="44.34534" lon="2.51546">
        <ele>615</ele>
        <time>2013-08-29T18:29:50Z</time>
      </trkpt>
      <trkpt lat="44.34534" lon="2.51553">
        <ele>614</ele>
        <time>2013-08-29T18:29:52Z</time>
      </trkpt>
      <trkpt lat="44.34535" lon="2.51562">
        <ele>614</ele>
        <time>2013-08-29T18:29:54Z</time>
      </trkpt>
      <trkpt lat="44.34536" lon="2.51571">
        <ele>613</ele>
        <time>2013-08-29T18:29:56Z</time>
      </trkpt>
      <trkpt lat="44.34537" lon="2.51579">
        <ele>612</ele>
        <time>2013-08-29T18:29:58Z</time>
      </trkpt>
      <trkpt lat="44.34539" lon="2.51588">
        <ele>611</ele>
        <time>2013-08-29T18:30:00Z</time>
      </trkpt>
      <trkpt lat="44.34541" lon="2.51597">
        <ele>611</ele>
        <time>2013-08-29T18:30:02Z</time>
      </trkpt>
      <trkpt lat="44.34543" lon="2.51605">
        <ele>611</ele>
        <time>2013-08-29T18:30:04Z</time>
      </trkpt>
      <trkpt lat="44.34545" lon="2.51623">
        <ele>611</ele>
        <time>2013-08-29T18:30:12Z</time>
      </trkpt>
      <trkpt lat="44.34547" lon="2.51637">
        <ele>610</ele>
        <time>2013-08-29T18:30:19Z</time>
      </trkpt>
      <trkpt lat="44.34549" lon="2.51644">
        <ele>610</ele>
        <time>2013-08-29T18:30:22Z</time>
      </trkpt>
      <trkpt lat="44.3455" lon="2.5165">
        <ele>610</ele>
        <time>2013-08-29T18:30:25Z</time>
      </trkpt>
      <trkpt lat="44.34551" lon="2.51658">
        <ele>610</ele>
        <time>2013-08-29T18:30:29Z</time>
      </trkpt>
      <trkpt lat="44.34554" lon="2.51664">
        <ele>611</ele>
        <time>2013-08-29T18:30:33Z</time>
      </trkpt>
      <trkpt lat="44.34558" lon="2.51669">
        <ele>611</ele>
        <time>2013-08-29T18:30:36Z</time>
      </trkpt>
      <trkpt lat="44.34562" lon="2.51675">
        <ele>611</ele>
        <time>2013-08-29T18:30:41Z</time>
      </trkpt>
      <trkpt lat="44.34566" lon="2.51679">
        <ele>611</ele>
        <time>2013-08-29T18:30:45Z</time>
      </trkpt>
      <trkpt lat="44.3457" lon="2.51686">
        <ele>611</ele>
        <time>2013-08-29T18:30:51Z</time>
      </trkpt>
      <trkpt lat="44.34574" lon="2.51692">
        <ele>611</ele>
        <time>2013-08-29T18:30:52Z</time>
      </trkpt>
      <trkpt lat="44.34576" lon="2.51697">
        <ele>610</ele>
        <time>2013-08-29T18:30:57Z</time>
      </trkpt>
      <trkpt lat="44.34582" lon="2.51708">
        <ele>610</ele>
        <time>2013-08-29T18:31:04Z</time>
      </trkpt>
      <trkpt lat="44.34585" lon="2.51714">
        <ele>611</ele>
        <time>2013-08-29T18:31:07Z</time>
      </trkpt>
      <trkpt lat="44.34588" lon="2.5172">
        <ele>610</ele>
        <time>2013-08-29T18:31:11Z</time>
      </trkpt>
      <trkpt lat="44.34591" lon="2.51727">
        <ele>610</ele>
        <time>2013-08-29T18:31:15Z</time>
      </trkpt>
      <trkpt lat="44.34594" lon="2.51732">
        <ele>610</ele>
        <time>2013-08-29T18:31:18Z</time>
      </trkpt>
      <trkpt lat="44.34599" lon="2.5174">
        <ele>609</ele>
        <time>2013-08-29T18:31:23Z</time>
      </trkpt>
      <trkpt lat="44.34602" lon="2.51745">
        <ele>608</ele>
        <time>2013-08-29T18:31:26Z</time>
      </trkpt>
      <trkpt lat="44.34604" lon="2.51752">
        <ele>609</ele>
        <time>2013-08-29T18:31:30Z</time>
      </trkpt>
      <trkpt lat="44.34607" lon="2.51758">
        <ele>610</ele>
        <time>2013-08-29T18:31:34Z</time>
      </trkpt>
      <trkpt lat="44.3461" lon="2.51764">
        <ele>610</ele>
        <time>2013-08-29T18:31:38Z</time>
      </trkpt>
      <trkpt lat="44.34613" lon="2.5177">
        <ele>610</ele>
        <time>2013-08-29T18:31:42Z</time>
      </trkpt>
      <trkpt lat="44.34617" lon="2.51776">
        <ele>610</ele>
        <time>2013-08-29T18:31:46Z</time>
      </trkpt>
      <trkpt lat="44.34619" lon="2.51781">
        <ele>610</ele>
        <time>2013-08-29T18:31:49Z</time>
      </trkpt>
      <trkpt lat="44.34622" lon="2.51787">
        <ele>610</ele>
        <time>2013-08-29T18:31:52Z</time>
      </trkpt>
      <trkpt lat="44.34625" lon="2.51793">
        <ele>610</ele>
        <time>2013-08-29T18:31:55Z</time>
      </trkpt>
      <trkpt lat="44.34628" lon="2.518">
        <ele>610</ele>
        <time>2013-08-29T18:31:59Z</time>
      </trkpt>
      <trkpt lat="44.3463" lon="2.51807">
        <ele>609</ele>
        <time>2013-08-29T18:32:03Z</time>
      </trkpt>
      <trkpt lat="44.34633" lon="2.51812">
        <ele>608</ele>
        <time>2013-08-29T18:32:07Z</time>
      </trkpt>
      <trkpt lat="44.34635" lon="2.5182">
        <ele>607</ele>
        <time>2013-08-29T18:32:11Z</time>
      </trkpt>
      <trkpt lat="44.34636" lon="2.51826">
        <ele>607</ele>
        <time>2013-08-29T18:32:14Z</time>
      </trkpt>
      <trkpt lat="44.34639" lon="2.51833">
        <ele>606</ele>
        <time>2013-08-29T18:32:18Z</time>
      </trkpt>
      <trkpt lat="44.3464" lon="2.51839">
        <ele>605</ele>
        <time>2013-08-29T18:32:21Z</time>
      </trkpt>
      <trkpt lat="44.34643" lon="2.51845">
        <ele>604</ele>
        <time>2013-08-29T18:32:24Z</time>
      </trkpt>
      <trkpt lat="44.34647" lon="2.5185">
        <ele>604</ele>
        <time>2013-08-29T18:32:28Z</time>
      </trkpt>
      <trkpt lat="44.34652" lon="2.51853">
        <ele>604</ele>
        <time>2013-08-29T18:32:31Z</time>
      </trkpt>
      <trkpt lat="44.34658" lon="2.51858">
        <ele>603</ele>
        <time>2013-08-29T18:32:35Z</time>
      </trkpt>
      <trkpt lat="44.34663" lon="2.51858">
        <ele>604</ele>
        <time>2013-08-29T18:32:39Z</time>
      </trkpt>
      <trkpt lat="44.34668" lon="2.51858">
        <ele>605</ele>
        <time>2013-08-29T18:32:42Z</time>
      </trkpt>
      <trkpt lat="44.34673" lon="2.51855">
        <ele>604</ele>
        <time>2013-08-29T18:32:46Z</time>
      </trkpt>
      <trkpt lat="44.34678" lon="2.51853">
        <ele>604</ele>
        <time>2013-08-29T18:32:49Z</time>
      </trkpt>
      <trkpt lat="44.34683" lon="2.51852">
        <ele>605</ele>
        <time>2013-08-29T18:32:52Z</time>
      </trkpt>
      <trkpt lat="44.34688" lon="2.51851">
        <ele>605</ele>
        <time>2013-08-29T18:32:55Z</time>
      </trkpt>
      <trkpt lat="44.34693" lon="2.51852">
        <ele>605</ele>
        <time>2013-08-29T18:32:59Z</time>
      </trkpt>
      <trkpt lat="44.34698" lon="2.51853">
        <ele>605</ele>
        <time>2013-08-29T18:33:03Z</time>
      </trkpt>
      <trkpt lat="44.34703" lon="2.51854">
        <ele>605</ele>
        <time>2013-08-29T18:33:07Z</time>
      </trkpt>
      <trkpt lat="44.34708" lon="2.51852">
        <ele>604</ele>
        <time>2013-08-29T18:33:10Z</time>
      </trkpt>
      <trkpt lat="44.34713" lon="2.5185">
        <ele>603</ele>
        <time>2013-08-29T18:33:14Z</time>
      </trkpt>
      <trkpt lat="44.34718" lon="2.51848">
        <ele>604</ele>
        <time>2013-08-29T18:33:18Z</time>
      </trkpt>
      <trkpt lat="44.34721" lon="2.51843">
        <ele>603</ele>
        <time>2013-08-29T18:33:22Z</time>
      </trkpt>
      <trkpt lat="44.34727" lon="2.51837">
        <ele>603</ele>
        <time>2013-08-29T18:33:27Z</time>
      </trkpt>
      <trkpt lat="44.3473" lon="2.51833">
        <ele>603</ele>
        <time>2013-08-29T18:33:31Z</time>
      </trkpt>
      <trkpt lat="44.34734" lon="2.51829">
        <ele>603</ele>
        <time>2013-08-29T18:33:34Z</time>
      </trkpt>
      <trkpt lat="44.34742" lon="2.51819">
        <ele>602</ele>
        <time>2013-08-29T18:33:40Z</time>
      </trkpt>
      <trkpt lat="44.34745" lon="2.51813">
        <ele>602</ele>
        <time>2013-08-29T18:33:44Z</time>
      </trkpt>
      <trkpt lat="44.34752" lon="2.51805">
        <ele>602</ele>
        <time>2013-08-29T18:33:52Z</time>
      </trkpt>
      <trkpt lat="44.34756" lon="2.518">
        <ele>601</ele>
        <time>2013-08-29T18:33:55Z</time>
      </trkpt>
      <trkpt lat="44.3476" lon="2.51796">
        <ele>602</ele>
        <time>2013-08-29T18:33:58Z</time>
      </trkpt>
      <trkpt lat="44.34765" lon="2.51794">
        <ele>603</ele>
        <time>2013-08-29T18:34:02Z</time>
      </trkpt>
      <trkpt lat="44.34771" lon="2.51793">
        <ele>604</ele>
        <time>2013-08-29T18:34:06Z</time>
      </trkpt>
      <trkpt lat="44.3478" lon="2.51794">
        <ele>605</ele>
        <time>2013-08-29T18:34:12Z</time>
      </trkpt>
      <trkpt lat="44.34785" lon="2.51794">
        <ele>604</ele>
        <time>2013-08-29T18:34:16Z</time>
      </trkpt>
      <trkpt lat="44.3479" lon="2.51796">
        <ele>605</ele>
        <time>2013-08-29T18:34:19Z</time>
      </trkpt>
      <trkpt lat="44.34796" lon="2.51797">
        <ele>604</ele>
        <time>2013-08-29T18:34:23Z</time>
      </trkpt>
      <trkpt lat="44.34801" lon="2.51798">
        <ele>604</ele>
        <time>2013-08-29T18:34:27Z</time>
      </trkpt>
      <trkpt lat="44.34806" lon="2.51799">
        <ele>603</ele>
        <time>2013-08-29T18:34:30Z</time>
      </trkpt>
      <trkpt lat="44.34813" lon="2.518">
        <ele>603</ele>
        <time>2013-08-29T18:34:34Z</time>
      </trkpt>
      <trkpt lat="44.34817" lon="2.51801">
        <ele>603</ele>
        <time>2013-08-29T18:34:37Z</time>
      </trkpt>
      <trkpt lat="44.34827" lon="2.518">
        <ele>603</ele>
        <time>2013-08-29T18:34:44Z</time>
      </trkpt>
      <trkpt lat="44.34832" lon="2.518">
        <ele>603</ele>
        <time>2013-08-29T18:34:47Z</time>
      </trkpt>
      <trkpt lat="44.34837" lon="2.518">
        <ele>602</ele>
        <time>2013-08-29T18:34:51Z</time>
      </trkpt>
      <trkpt lat="44.34842" lon="2.518">
        <ele>603</ele>
        <time>2013-08-29T18:34:54Z</time>
      </trkpt>
      <trkpt lat="44.34847" lon="2.51801">
        <ele>603</ele>
        <time>2013-08-29T18:34:57Z</time>
      </trkpt>
      <trkpt lat="44.34852" lon="2.51801">
        <ele>603</ele>
        <time>2013-08-29T18:35:00Z</time>
      </trkpt>
      <trkpt lat="44.34857" lon="2.51802">
        <ele>602</ele>
        <time>2013-08-29T18:35:03Z</time>
      </trkpt>
      <trkpt lat="44.34861" lon="2.51802">
        <ele>601</ele>
        <time>2013-08-29T18:35:06Z</time>
      </trkpt>
      <trkpt lat="44.34866" lon="2.51804">
        <ele>600</ele>
        <time>2013-08-29T18:35:09Z</time>
      </trkpt>
      <trkpt lat="44.34871" lon="2.51805">
        <ele>599</ele>
        <time>2013-08-29T18:35:13Z</time>
      </trkpt>
      <trkpt lat="44.34875" lon="2.51808">
        <ele>598</ele>
        <time>2013-08-29T18:35:17Z</time>
      </trkpt>
      <trkpt lat="44.34879" lon="2.51811">
        <ele>598</ele>
        <time>2013-08-29T18:35:20Z</time>
      </trkpt>
      <trkpt lat="44.34884" lon="2.51812">
        <ele>598</ele>
        <time>2013-08-29T18:35:23Z</time>
      </trkpt>
      <trkpt lat="44.34889" lon="2.51812">
        <ele>597</ele>
        <time>2013-08-29T18:35:27Z</time>
      </trkpt>
      <trkpt lat="44.34895" lon="2.51813">
        <ele>597</ele>
        <time>2013-08-29T18:35:31Z</time>
      </trkpt>
      <trkpt lat="44.349" lon="2.51813">
        <ele>596</ele>
        <time>2013-08-29T18:35:34Z</time>
      </trkpt>
      <trkpt lat="44.34905" lon="2.51811">
        <ele>595</ele>
        <time>2013-08-29T18:35:37Z</time>
      </trkpt>
      <trkpt lat="44.3491" lon="2.51808">
        <ele>595</ele>
        <time>2013-08-29T18:35:41Z</time>
      </trkpt>
      <trkpt lat="44.34915" lon="2.51807">
        <ele>595</ele>
        <time>2013-08-29T18:35:44Z</time>
      </trkpt>
      <trkpt lat="44.34919" lon="2.51804">
        <ele>595</ele>
        <time>2013-08-29T18:35:47Z</time>
      </trkpt>
      <trkpt lat="44.34925" lon="2.518">
        <ele>593</ele>
        <time>2013-08-29T18:35:52Z</time>
      </trkpt>
      <trkpt lat="44.34929" lon="2.51797">
        <ele>593</ele>
        <time>2013-08-29T18:35:56Z</time>
      </trkpt>
      <trkpt lat="44.34934" lon="2.51792">
        <ele>592</ele>
        <time>2013-08-29T18:36:00Z</time>
      </trkpt>
      <trkpt lat="44.34938" lon="2.51789">
        <ele>591</ele>
        <time>2013-08-29T18:36:03Z</time>
      </trkpt>
      <trkpt lat="44.34942" lon="2.51785">
        <ele>591</ele>
        <time>2013-08-29T18:36:06Z</time>
      </trkpt>
      <trkpt lat="44.34945" lon="2.51781">
        <ele>591</ele>
        <time>2013-08-29T18:36:09Z</time>
      </trkpt>
      <trkpt lat="44.3495" lon="2.51775">
        <ele>591</ele>
        <time>2013-08-29T18:36:14Z</time>
      </trkpt>
      <trkpt lat="44.34954" lon="2.51771">
        <ele>591</ele>
        <time>2013-08-29T18:36:18Z</time>
      </trkpt>
      <trkpt lat="44.34959" lon="2.5177">
        <ele>590</ele>
        <time>2013-08-29T18:36:21Z</time>
      </trkpt>
      <trkpt lat="44.34964" lon="2.51772">
        <ele>589</ele>
        <time>2013-08-29T18:36:24Z</time>
      </trkpt>
      <trkpt lat="44.34969" lon="2.51779">
        <ele>590</ele>
        <time>2013-08-29T18:36:30Z</time>
      </trkpt>
      <trkpt lat="44.34972" lon="2.51784">
        <ele>590</ele>
        <time>2013-08-29T18:36:33Z</time>
      </trkpt>
      <trkpt lat="44.34976" lon="2.5179">
        <ele>591</ele>
        <time>2013-08-29T18:36:37Z</time>
      </trkpt>
      <trkpt lat="44.34978" lon="2.51796">
        <ele>591</ele>
        <time>2013-08-29T18:36:40Z</time>
      </trkpt>
      <trkpt lat="44.34981" lon="2.51801">
        <ele>591</ele>
        <time>2013-08-29T18:36:43Z</time>
      </trkpt>
      <trkpt lat="44.34984" lon="2.51806">
        <ele>591</ele>
        <time>2013-08-29T18:36:46Z</time>
      </trkpt>
      <trkpt lat="44.34986" lon="2.51812">
        <ele>591</ele>
        <time>2013-08-29T18:36:49Z</time>
      </trkpt>
      <trkpt lat="44.3499" lon="2.51819">
        <ele>591</ele>
        <time>2013-08-29T18:36:54Z</time>
      </trkpt>
      <trkpt lat="44.34994" lon="2.51824">
        <ele>591</ele>
        <time>2013-08-29T18:36:58Z</time>
      </trkpt>
      <trkpt lat="44.34998" lon="2.51828">
        <ele>591</ele>
        <time>2013-08-29T18:37:01Z</time>
      </trkpt>
      <trkpt lat="44.35003" lon="2.51832">
        <ele>592</ele>
        <time>2013-08-29T18:37:05Z</time>
      </trkpt>
      <trkpt lat="44.35008" lon="2.51836">
        <ele>593</ele>
        <time>2013-08-29T18:37:09Z</time>
      </trkpt>
      <trkpt lat="44.35013" lon="2.51836">
        <ele>592</ele>
        <time>2013-08-29T18:37:13Z</time>
      </trkpt>
      <trkpt lat="44.35017" lon="2.51835">
        <ele>592</ele>
        <time>2013-08-29T18:37:16Z</time>
      </trkpt>
      <trkpt lat="44.35022" lon="2.51831">
        <ele>592</ele>
        <time>2013-08-29T18:37:20Z</time>
      </trkpt>
      <trkpt lat="44.35027" lon="2.51827">
        <ele>592</ele>
        <time>2013-08-29T18:37:24Z</time>
      </trkpt>
      <trkpt lat="44.35031" lon="2.51823">
        <ele>592</ele>
        <time>2013-08-29T18:37:28Z</time>
      </trkpt>
      <trkpt lat="44.35035" lon="2.51819">
        <ele>592</ele>
        <time>2013-08-29T18:37:31Z</time>
      </trkpt>
      <trkpt lat="44.35039" lon="2.51815">
        <ele>590</ele>
        <time>2013-08-29T18:37:35Z</time>
      </trkpt>
      <trkpt lat="44.35043" lon="2.5181">
        <ele>589</ele>
        <time>2013-08-29T18:37:38Z</time>
      </trkpt>
      <trkpt lat="44.35048" lon="2.51806">
        <ele>588</ele>
        <time>2013-08-29T18:37:41Z</time>
      </trkpt>
      <trkpt lat="44.35053" lon="2.51802">
        <ele>588</ele>
        <time>2013-08-29T18:37:45Z</time>
      </trkpt>
      <trkpt lat="44.35057" lon="2.51799">
        <ele>588</ele>
        <time>2013-08-29T18:37:48Z</time>
      </trkpt>
      <trkpt lat="44.35062" lon="2.51795">
        <ele>589</ele>
        <time>2013-08-29T18:37:52Z</time>
      </trkpt>
      <trkpt lat="44.35066" lon="2.51792">
        <ele>590</ele>
        <time>2013-08-29T18:37:55Z</time>
      </trkpt>
      <trkpt lat="44.3507" lon="2.51788">
        <ele>590</ele>
        <time>2013-08-29T18:37:58Z</time>
      </trkpt>
      <trkpt lat="44.35075" lon="2.51783">
        <ele>590</ele>
        <time>2013-08-29T18:38:02Z</time>
      </trkpt>
      <trkpt lat="44.3508" lon="2.51779">
        <ele>590</ele>
        <time>2013-08-29T18:38:05Z</time>
      </trkpt>
      <trkpt lat="44.35083" lon="2.51775">
        <ele>591</ele>
        <time>2013-08-29T18:38:08Z</time>
      </trkpt>
      <trkpt lat="44.35087" lon="2.5177">
        <ele>591</ele>
        <time>2013-08-29T18:38:12Z</time>
      </trkpt>
      <trkpt lat="44.35091" lon="2.51767">
        <ele>590</ele>
        <time>2013-08-29T18:38:16Z</time>
      </trkpt>
      <trkpt lat="44.35096" lon="2.51762">
        <ele>588</ele>
        <time>2013-08-29T18:38:21Z</time>
      </trkpt>
      <trkpt lat="44.35102" lon="2.51759">
        <ele>588</ele>
        <time>2013-08-29T18:38:25Z</time>
      </trkpt>
      <trkpt lat="44.35107" lon="2.51757">
        <ele>587</ele>
        <time>2013-08-29T18:38:28Z</time>
      </trkpt>
      <trkpt lat="44.35111" lon="2.51754">
        <ele>587</ele>
        <time>2013-08-29T18:38:31Z</time>
      </trkpt>
      <trkpt lat="44.35115" lon="2.51753">
        <ele>587</ele>
        <time>2013-08-29T18:38:34Z</time>
      </trkpt>
      <trkpt lat="44.35121" lon="2.51751">
        <ele>588</ele>
        <time>2013-08-29T18:38:38Z</time>
      </trkpt>
      <trkpt lat="44.35127" lon="2.51751">
        <ele>588</ele>
        <time>2013-08-29T18:38:42Z</time>
      </trkpt>
      <trkpt lat="44.35135" lon="2.51751">
        <ele>588</ele>
        <time>2013-08-29T18:38:48Z</time>
      </trkpt>
      <trkpt lat="44.35141" lon="2.5175">
        <ele>586</ele>
        <time>2013-08-29T18:38:53Z</time>
      </trkpt>
      <trkpt lat="44.35145" lon="2.51747">
        <ele>586</ele>
        <time>2013-08-29T18:38:57Z</time>
      </trkpt>
      <trkpt lat="44.35149" lon="2.51741">
        <ele>584</ele>
        <time>2013-08-29T18:39:01Z</time>
      </trkpt>
      <trkpt lat="44.35153" lon="2.51736">
        <ele>584</ele>
        <time>2013-08-29T18:39:05Z</time>
      </trkpt>
      <trkpt lat="44.35159" lon="2.5173">
        <ele>583</ele>
        <time>2013-08-29T18:39:09Z</time>
      </trkpt>
      <trkpt lat="44.35164" lon="2.51725">
        <ele>583</ele>
        <time>2013-08-29T18:39:12Z</time>
      </trkpt>
    </trkseg>
  </trk>
</gpx>